<?xml version="1.0" encoding="UTF-8" standalone="no" ?>
<gpx xmlns="http://www.topografix.com/GPX/1/1" xmlns:xsi="http://www.w3.org/2001/XMLSchema-instance" xsi:schemaLocation="http://www.topografix.com/GPX/1/1 http://www.topografix.com/GPX/1/1/gpx.xsd" version="1.1" creator="VisuGPX - https://www.visugpx.com">
  <metadata>
    <name>Kreutzheck</name>
    <desc><![CDATA[Rando de la Kreutzheck et de la chapelle de la réconciliation à Spicheren]]></desc>
  </metadata>
  <trk>
    <name><![CDATA[Kreutzheck 19/10/16]]></name>
    <trkseg>
      <trkpt lat="49.19092" lon="6.96513">
        <ele>391.39</ele>
        <time>2016-10-19T06:57:02Z</time>
      </trkpt>
      <trkpt lat="49.19077" lon="6.96506">
        <ele>385.63</ele>
        <time>2016-10-19T06:57:24Z</time>
      </trkpt>
      <trkpt lat="49.19095" lon="6.96491">
        <ele>337.08</ele>
        <time>2016-10-19T06:57:47Z</time>
      </trkpt>
      <trkpt lat="49.19095" lon="6.9649">
        <ele>324.1</ele>
        <time>2016-10-19T06:58:09Z</time>
      </trkpt>
      <trkpt lat="49.19093" lon="6.96494">
        <ele>322.18</ele>
        <time>2016-10-19T06:58:23Z</time>
      </trkpt>
      <trkpt lat="49.19093" lon="6.96496">
        <ele>321.7</ele>
        <time>2016-10-19T06:58:25Z</time>
      </trkpt>
      <trkpt lat="49.19088" lon="6.96505">
        <ele>320.26</ele>
        <time>2016-10-19T06:58:38Z</time>
      </trkpt>
      <trkpt lat="49.19086" lon="6.96508">
        <ele>318.81</ele>
        <time>2016-10-19T06:58:41Z</time>
      </trkpt>
      <trkpt lat="49.19084" lon="6.96512">
        <ele>312.57</ele>
        <time>2016-10-19T06:58:53Z</time>
      </trkpt>
      <trkpt lat="49.19085" lon="6.96513">
        <ele>311.12</ele>
        <time>2016-10-19T06:59:15Z</time>
      </trkpt>
      <trkpt lat="49.19085" lon="6.96515">
        <ele>310.64</ele>
        <time>2016-10-19T06:59:18Z</time>
      </trkpt>
      <trkpt lat="49.19084" lon="6.96518">
        <ele>310.16</ele>
        <time>2016-10-19T06:59:20Z</time>
      </trkpt>
      <trkpt lat="49.19084" lon="6.96524">
        <ele>309.2</ele>
        <time>2016-10-19T06:59:24Z</time>
      </trkpt>
      <trkpt lat="49.19086" lon="6.96533">
        <ele>306.8</ele>
        <time>2016-10-19T06:59:32Z</time>
      </trkpt>
      <trkpt lat="49.19089" lon="6.96538">
        <ele>307.76</ele>
        <time>2016-10-19T06:59:36Z</time>
      </trkpt>
      <trkpt lat="49.19103" lon="6.96554">
        <ele>309.68</ele>
        <time>2016-10-19T06:59:53Z</time>
      </trkpt>
      <trkpt lat="49.19117" lon="6.96562">
        <ele>309.2</ele>
        <time>2016-10-19T07:00:09Z</time>
      </trkpt>
      <trkpt lat="49.19136" lon="6.96563">
        <ele>310.16</ele>
        <time>2016-10-19T07:00:26Z</time>
      </trkpt>
      <trkpt lat="49.19145" lon="6.96571">
        <ele>309.2</ele>
        <time>2016-10-19T07:00:38Z</time>
      </trkpt>
      <trkpt lat="49.19147" lon="6.96588">
        <ele>306.8</ele>
        <time>2016-10-19T07:00:51Z</time>
      </trkpt>
      <trkpt lat="49.19147" lon="6.96606">
        <ele>306.32</ele>
        <time>2016-10-19T07:01:04Z</time>
      </trkpt>
      <trkpt lat="49.19141" lon="6.96632">
        <ele>306.8</ele>
        <time>2016-10-19T07:01:20Z</time>
      </trkpt>
      <trkpt lat="49.19134" lon="6.96658">
        <ele>306.32</ele>
        <time>2016-10-19T07:01:36Z</time>
      </trkpt>
      <trkpt lat="49.19125" lon="6.9668">
        <ele>309.2</ele>
        <time>2016-10-19T07:01:50Z</time>
      </trkpt>
      <trkpt lat="49.19111" lon="6.96701">
        <ele>308.72</ele>
        <time>2016-10-19T07:02:07Z</time>
      </trkpt>
      <trkpt lat="49.19096" lon="6.96722">
        <ele>308.24</ele>
        <time>2016-10-19T07:02:24Z</time>
      </trkpt>
      <trkpt lat="49.19094" lon="6.96723">
        <ele>308.24</ele>
        <time>2016-10-19T07:02:26Z</time>
      </trkpt>
      <trkpt lat="49.19083" lon="6.96709">
        <ele>309.2</ele>
        <time>2016-10-19T07:02:38Z</time>
      </trkpt>
      <trkpt lat="49.19071" lon="6.96693">
        <ele>310.16</ele>
        <time>2016-10-19T07:02:54Z</time>
      </trkpt>
      <trkpt lat="49.19056" lon="6.96674">
        <ele>309.68</ele>
        <time>2016-10-19T07:03:10Z</time>
      </trkpt>
      <trkpt lat="49.19039" lon="6.96657">
        <ele>310.16</ele>
        <time>2016-10-19T07:03:28Z</time>
      </trkpt>
      <trkpt lat="49.19022" lon="6.96646">
        <ele>313.05</ele>
        <time>2016-10-19T07:03:44Z</time>
      </trkpt>
      <trkpt lat="49.19018" lon="6.96641">
        <ele>313.53</ele>
        <time>2016-10-19T07:03:48Z</time>
      </trkpt>
      <trkpt lat="49.19" lon="6.96631">
        <ele>311.6</ele>
        <time>2016-10-19T07:04:06Z</time>
      </trkpt>
      <trkpt lat="49.18983" lon="6.96622">
        <ele>312.09</ele>
        <time>2016-10-19T07:04:22Z</time>
      </trkpt>
      <trkpt lat="49.18963" lon="6.96612">
        <ele>312.57</ele>
        <time>2016-10-19T07:04:41Z</time>
      </trkpt>
      <trkpt lat="49.18939" lon="6.96602">
        <ele>314.01</ele>
        <time>2016-10-19T07:05:00Z</time>
      </trkpt>
      <trkpt lat="49.18923" lon="6.966">
        <ele>314.01</ele>
        <time>2016-10-19T07:05:15Z</time>
      </trkpt>
      <trkpt lat="49.18903" lon="6.96603">
        <ele>316.41</ele>
        <time>2016-10-19T07:05:33Z</time>
      </trkpt>
      <trkpt lat="49.18882" lon="6.96613">
        <ele>318.81</ele>
        <time>2016-10-19T07:05:52Z</time>
      </trkpt>
      <trkpt lat="49.18864" lon="6.96623">
        <ele>318.81</ele>
        <time>2016-10-19T07:06:12Z</time>
      </trkpt>
      <trkpt lat="49.18845" lon="6.96632">
        <ele>319.3</ele>
        <time>2016-10-19T07:06:31Z</time>
      </trkpt>
      <trkpt lat="49.18828" lon="6.96642">
        <ele>322.18</ele>
        <time>2016-10-19T07:06:49Z</time>
      </trkpt>
      <trkpt lat="49.18812" lon="6.9665">
        <ele>324.58</ele>
        <time>2016-10-19T07:07:08Z</time>
      </trkpt>
      <trkpt lat="49.188" lon="6.96658">
        <ele>326.02</ele>
        <time>2016-10-19T07:07:23Z</time>
      </trkpt>
      <trkpt lat="49.1878" lon="6.96666">
        <ele>330.35</ele>
        <time>2016-10-19T07:07:43Z</time>
      </trkpt>
      <trkpt lat="49.18763" lon="6.96672">
        <ele>334.68</ele>
        <time>2016-10-19T07:08:01Z</time>
      </trkpt>
      <trkpt lat="49.18749" lon="6.96675">
        <ele>336.6</ele>
        <time>2016-10-19T07:08:16Z</time>
      </trkpt>
      <trkpt lat="49.18731" lon="6.96672">
        <ele>339.96</ele>
        <time>2016-10-19T07:08:35Z</time>
      </trkpt>
      <trkpt lat="49.18715" lon="6.96666">
        <ele>342.85</ele>
        <time>2016-10-19T07:08:51Z</time>
      </trkpt>
      <trkpt lat="49.18697" lon="6.96662">
        <ele>345.73</ele>
        <time>2016-10-19T07:09:08Z</time>
      </trkpt>
      <trkpt lat="49.1868" lon="6.96668">
        <ele>348.13</ele>
        <time>2016-10-19T07:09:25Z</time>
      </trkpt>
      <trkpt lat="49.18679" lon="6.96671">
        <ele>348.62</ele>
        <time>2016-10-19T07:09:28Z</time>
      </trkpt>
      <trkpt lat="49.18675" lon="6.96676">
        <ele>349.1</ele>
        <time>2016-10-19T07:09:32Z</time>
      </trkpt>
      <trkpt lat="49.18667" lon="6.9669">
        <ele>349.1</ele>
        <time>2016-10-19T07:09:45Z</time>
      </trkpt>
      <trkpt lat="49.18659" lon="6.96717">
        <ele>351.98</ele>
        <time>2016-10-19T07:10:01Z</time>
      </trkpt>
      <trkpt lat="49.18652" lon="6.96736">
        <ele>352.46</ele>
        <time>2016-10-19T07:10:15Z</time>
      </trkpt>
      <trkpt lat="49.18649" lon="6.96743">
        <ele>352.46</ele>
        <time>2016-10-19T07:10:20Z</time>
      </trkpt>
      <trkpt lat="49.18642" lon="6.96771">
        <ele>351.5</ele>
        <time>2016-10-19T07:10:38Z</time>
      </trkpt>
      <trkpt lat="49.18636" lon="6.96805">
        <ele>351.02</ele>
        <time>2016-10-19T07:10:59Z</time>
      </trkpt>
      <trkpt lat="49.18631" lon="6.96837">
        <ele>351.02</ele>
        <time>2016-10-19T07:11:18Z</time>
      </trkpt>
      <trkpt lat="49.18627" lon="6.96864">
        <ele>350.54</ele>
        <time>2016-10-19T07:11:34Z</time>
      </trkpt>
      <trkpt lat="49.18624" lon="6.96892">
        <ele>348.13</ele>
        <time>2016-10-19T07:11:52Z</time>
      </trkpt>
      <trkpt lat="49.1862" lon="6.9692">
        <ele>345.73</ele>
        <time>2016-10-19T07:12:09Z</time>
      </trkpt>
      <trkpt lat="49.18615" lon="6.96938">
        <ele>343.81</ele>
        <time>2016-10-19T07:12:24Z</time>
      </trkpt>
      <trkpt lat="49.18605" lon="6.9695">
        <ele>340.44</ele>
        <time>2016-10-19T07:12:37Z</time>
      </trkpt>
      <trkpt lat="49.18605" lon="6.96951">
        <ele>340.44</ele>
        <time>2016-10-19T07:12:38Z</time>
      </trkpt>
      <trkpt lat="49.18591" lon="6.96961">
        <ele>337.08</ele>
        <time>2016-10-19T07:12:53Z</time>
      </trkpt>
      <trkpt lat="49.18574" lon="6.96976">
        <ele>339.96</ele>
        <time>2016-10-19T07:13:09Z</time>
      </trkpt>
      <trkpt lat="49.18561" lon="6.96978">
        <ele>340.44</ele>
        <time>2016-10-19T07:13:26Z</time>
      </trkpt>
      <trkpt lat="49.18545" lon="6.96987">
        <ele>338.04</ele>
        <time>2016-10-19T07:13:45Z</time>
      </trkpt>
      <trkpt lat="49.18531" lon="6.97002">
        <ele>335.64</ele>
        <time>2016-10-19T07:14:02Z</time>
      </trkpt>
      <trkpt lat="49.18523" lon="6.97012">
        <ele>335.16</ele>
        <time>2016-10-19T07:14:18Z</time>
      </trkpt>
      <trkpt lat="49.18525" lon="6.97014">
        <ele>333.23</ele>
        <time>2016-10-19T07:14:40Z</time>
      </trkpt>
      <trkpt lat="49.18524" lon="6.97014">
        <ele>335.16</ele>
        <time>2016-10-19T07:15:05Z</time>
      </trkpt>
      <trkpt lat="49.18527" lon="6.97017">
        <ele>341.41</ele>
        <time>2016-10-19T07:15:38Z</time>
      </trkpt>
      <trkpt lat="49.18528" lon="6.97019">
        <ele>345.73</ele>
        <time>2016-10-19T07:16:14Z</time>
      </trkpt>
      <trkpt lat="49.18526" lon="6.97021">
        <ele>343.33</ele>
        <time>2016-10-19T07:16:50Z</time>
      </trkpt>
      <trkpt lat="49.18521" lon="6.97024">
        <ele>343.33</ele>
        <time>2016-10-19T07:17:07Z</time>
      </trkpt>
      <trkpt lat="49.18509" lon="6.97034">
        <ele>339.96</ele>
        <time>2016-10-19T07:17:23Z</time>
      </trkpt>
      <trkpt lat="49.18493" lon="6.97048">
        <ele>336.6</ele>
        <time>2016-10-19T07:17:40Z</time>
      </trkpt>
      <trkpt lat="49.18481" lon="6.97063">
        <ele>334.2</ele>
        <time>2016-10-19T07:17:56Z</time>
      </trkpt>
      <trkpt lat="49.1847" lon="6.97085">
        <ele>329.87</ele>
        <time>2016-10-19T07:18:14Z</time>
      </trkpt>
      <trkpt lat="49.18461" lon="6.97108">
        <ele>326.02</ele>
        <time>2016-10-19T07:18:31Z</time>
      </trkpt>
      <trkpt lat="49.18453" lon="6.97128">
        <ele>321.7</ele>
        <time>2016-10-19T07:18:48Z</time>
      </trkpt>
      <trkpt lat="49.18443" lon="6.97148">
        <ele>320.26</ele>
        <time>2016-10-19T07:19:04Z</time>
      </trkpt>
      <trkpt lat="49.18431" lon="6.9717">
        <ele>316.89</ele>
        <time>2016-10-19T07:19:22Z</time>
      </trkpt>
      <trkpt lat="49.18418" lon="6.97192">
        <ele>316.41</ele>
        <time>2016-10-19T07:19:41Z</time>
      </trkpt>
      <trkpt lat="49.18401" lon="6.97203">
        <ele>314.01</ele>
        <time>2016-10-19T07:20:01Z</time>
      </trkpt>
      <trkpt lat="49.18388" lon="6.97215">
        <ele>311.12</ele>
        <time>2016-10-19T07:20:17Z</time>
      </trkpt>
      <trkpt lat="49.18379" lon="6.97223">
        <ele>307.76</ele>
        <time>2016-10-19T07:20:31Z</time>
      </trkpt>
      <trkpt lat="49.18367" lon="6.97234">
        <ele>304.88</ele>
        <time>2016-10-19T07:20:47Z</time>
      </trkpt>
      <trkpt lat="49.18351" lon="6.97262">
        <ele>309.68</ele>
        <time>2016-10-19T07:21:04Z</time>
      </trkpt>
      <trkpt lat="49.18342" lon="6.97291">
        <ele>315.45</ele>
        <time>2016-10-19T07:21:21Z</time>
      </trkpt>
      <trkpt lat="49.18333" lon="6.97317">
        <ele>315.93</ele>
        <time>2016-10-19T07:21:38Z</time>
      </trkpt>
      <trkpt lat="49.18323" lon="6.9734">
        <ele>314.49</ele>
        <time>2016-10-19T07:21:55Z</time>
      </trkpt>
      <trkpt lat="49.18311" lon="6.97359">
        <ele>312.09</ele>
        <time>2016-10-19T07:22:12Z</time>
      </trkpt>
      <trkpt lat="49.18298" lon="6.97371">
        <ele>312.09</ele>
        <time>2016-10-19T07:22:28Z</time>
      </trkpt>
      <trkpt lat="49.18289" lon="6.97371">
        <ele>311.12</ele>
        <time>2016-10-19T07:22:43Z</time>
      </trkpt>
      <trkpt lat="49.18264" lon="6.97374">
        <ele>316.41</ele>
        <time>2016-10-19T07:23:22Z</time>
      </trkpt>
      <trkpt lat="49.18262" lon="6.97377">
        <ele>318.81</ele>
        <time>2016-10-19T07:23:46Z</time>
      </trkpt>
      <trkpt lat="49.18259" lon="6.97376">
        <ele>324.58</ele>
        <time>2016-10-19T07:24:09Z</time>
      </trkpt>
      <trkpt lat="49.18295" lon="6.97382">
        <ele>328.91</ele>
        <time>2016-10-19T07:25:03Z</time>
      </trkpt>
      <trkpt lat="49.18293" lon="6.97396">
        <ele>334.2</ele>
        <time>2016-10-19T07:25:25Z</time>
      </trkpt>
      <trkpt lat="49.18295" lon="6.97401">
        <ele>333.23</ele>
        <time>2016-10-19T07:25:47Z</time>
      </trkpt>
      <trkpt lat="49.18291" lon="6.97414">
        <ele>331.79</ele>
        <time>2016-10-19T07:26:05Z</time>
      </trkpt>
      <trkpt lat="49.18293" lon="6.97434">
        <ele>331.79</ele>
        <time>2016-10-19T07:26:22Z</time>
      </trkpt>
      <trkpt lat="49.18291" lon="6.97461">
        <ele>330.83</ele>
        <time>2016-10-19T07:26:39Z</time>
      </trkpt>
      <trkpt lat="49.1829" lon="6.97487">
        <ele>327.95</ele>
        <time>2016-10-19T07:26:59Z</time>
      </trkpt>
      <trkpt lat="49.18286" lon="6.97517">
        <ele>327.95</ele>
        <time>2016-10-19T07:27:18Z</time>
      </trkpt>
      <trkpt lat="49.18286" lon="6.97542">
        <ele>328.43</ele>
        <time>2016-10-19T07:27:35Z</time>
      </trkpt>
      <trkpt lat="49.18281" lon="6.9757">
        <ele>327.47</ele>
        <time>2016-10-19T07:27:52Z</time>
      </trkpt>
      <trkpt lat="49.18275" lon="6.97589">
        <ele>325.54</ele>
        <time>2016-10-19T07:28:06Z</time>
      </trkpt>
      <trkpt lat="49.18271" lon="6.97607">
        <ele>322.66</ele>
        <time>2016-10-19T07:28:21Z</time>
      </trkpt>
      <trkpt lat="49.18264" lon="6.9763">
        <ele>322.66</ele>
        <time>2016-10-19T07:28:36Z</time>
      </trkpt>
      <trkpt lat="49.18257" lon="6.97648">
        <ele>319.3</ele>
        <time>2016-10-19T07:28:51Z</time>
      </trkpt>
      <trkpt lat="49.18248" lon="6.97668">
        <ele>316.41</ele>
        <time>2016-10-19T07:29:07Z</time>
      </trkpt>
      <trkpt lat="49.18243" lon="6.97691">
        <ele>317.85</ele>
        <time>2016-10-19T07:29:22Z</time>
      </trkpt>
      <trkpt lat="49.18235" lon="6.97716">
        <ele>317.85</ele>
        <time>2016-10-19T07:29:40Z</time>
      </trkpt>
      <trkpt lat="49.18228" lon="6.97742">
        <ele>317.85</ele>
        <time>2016-10-19T07:29:58Z</time>
      </trkpt>
      <trkpt lat="49.18221" lon="6.97764">
        <ele>317.85</ele>
        <time>2016-10-19T07:30:16Z</time>
      </trkpt>
      <trkpt lat="49.18215" lon="6.97779">
        <ele>315.93</ele>
        <time>2016-10-19T07:30:29Z</time>
      </trkpt>
      <trkpt lat="49.18207" lon="6.97804">
        <ele>315.45</ele>
        <time>2016-10-19T07:30:47Z</time>
      </trkpt>
      <trkpt lat="49.18199" lon="6.97829">
        <ele>315.45</ele>
        <time>2016-10-19T07:31:04Z</time>
      </trkpt>
      <trkpt lat="49.1819" lon="6.97852">
        <ele>314.97</ele>
        <time>2016-10-19T07:31:19Z</time>
      </trkpt>
      <trkpt lat="49.18181" lon="6.97877">
        <ele>313.53</ele>
        <time>2016-10-19T07:31:36Z</time>
      </trkpt>
      <trkpt lat="49.18174" lon="6.97898">
        <ele>313.53</ele>
        <time>2016-10-19T07:31:51Z</time>
      </trkpt>
      <trkpt lat="49.18166" lon="6.97916">
        <ele>310.64</ele>
        <time>2016-10-19T07:32:07Z</time>
      </trkpt>
      <trkpt lat="49.18157" lon="6.97937">
        <ele>309.2</ele>
        <time>2016-10-19T07:32:23Z</time>
      </trkpt>
      <trkpt lat="49.1815" lon="6.97952">
        <ele>307.76</ele>
        <time>2016-10-19T07:32:37Z</time>
      </trkpt>
      <trkpt lat="49.18146" lon="6.97967">
        <ele>309.2</ele>
        <time>2016-10-19T07:32:59Z</time>
      </trkpt>
      <trkpt lat="49.18146" lon="6.97989">
        <ele>312.09</ele>
        <time>2016-10-19T07:33:16Z</time>
      </trkpt>
      <trkpt lat="49.1814" lon="6.98012">
        <ele>311.12</ele>
        <time>2016-10-19T07:33:32Z</time>
      </trkpt>
      <trkpt lat="49.18136" lon="6.98032">
        <ele>310.16</ele>
        <time>2016-10-19T07:33:47Z</time>
      </trkpt>
      <trkpt lat="49.18132" lon="6.98052">
        <ele>310.16</ele>
        <time>2016-10-19T07:34:02Z</time>
      </trkpt>
      <trkpt lat="49.18124" lon="6.98078">
        <ele>308.72</ele>
        <time>2016-10-19T07:34:19Z</time>
      </trkpt>
      <trkpt lat="49.18118" lon="6.98098">
        <ele>311.6</ele>
        <time>2016-10-19T07:34:34Z</time>
      </trkpt>
      <trkpt lat="49.18112" lon="6.98119">
        <ele>312.57</ele>
        <time>2016-10-19T07:34:50Z</time>
      </trkpt>
      <trkpt lat="49.18108" lon="6.98138">
        <ele>312.09</ele>
        <time>2016-10-19T07:35:05Z</time>
      </trkpt>
      <trkpt lat="49.18102" lon="6.98159">
        <ele>312.57</ele>
        <time>2016-10-19T07:35:20Z</time>
      </trkpt>
      <trkpt lat="49.18098" lon="6.98183">
        <ele>312.57</ele>
        <time>2016-10-19T07:35:38Z</time>
      </trkpt>
      <trkpt lat="49.18095" lon="6.98202">
        <ele>313.05</ele>
        <time>2016-10-19T07:35:52Z</time>
      </trkpt>
      <trkpt lat="49.18094" lon="6.9822">
        <ele>312.09</ele>
        <time>2016-10-19T07:36:07Z</time>
      </trkpt>
      <trkpt lat="49.18093" lon="6.98244">
        <ele>312.09</ele>
        <time>2016-10-19T07:36:23Z</time>
      </trkpt>
      <trkpt lat="49.18091" lon="6.98269">
        <ele>313.05</ele>
        <time>2016-10-19T07:36:42Z</time>
      </trkpt>
      <trkpt lat="49.18091" lon="6.98283">
        <ele>313.05</ele>
        <time>2016-10-19T07:36:59Z</time>
      </trkpt>
      <trkpt lat="49.18089" lon="6.98297">
        <ele>312.09</ele>
        <time>2016-10-19T07:37:13Z</time>
      </trkpt>
      <trkpt lat="49.18088" lon="6.98314">
        <ele>312.09</ele>
        <time>2016-10-19T07:37:27Z</time>
      </trkpt>
      <trkpt lat="49.18085" lon="6.98337">
        <ele>312.57</ele>
        <time>2016-10-19T07:37:44Z</time>
      </trkpt>
      <trkpt lat="49.18081" lon="6.98359">
        <ele>311.6</ele>
        <time>2016-10-19T07:38:02Z</time>
      </trkpt>
      <trkpt lat="49.18077" lon="6.98381">
        <ele>312.09</ele>
        <time>2016-10-19T07:38:17Z</time>
      </trkpt>
      <trkpt lat="49.18071" lon="6.98402">
        <ele>311.12</ele>
        <time>2016-10-19T07:38:34Z</time>
      </trkpt>
      <trkpt lat="49.18065" lon="6.98414">
        <ele>310.64</ele>
        <time>2016-10-19T07:38:46Z</time>
      </trkpt>
      <trkpt lat="49.18054" lon="6.9843">
        <ele>306.32</ele>
        <time>2016-10-19T07:39:03Z</time>
      </trkpt>
      <trkpt lat="49.18041" lon="6.98448">
        <ele>303.91</ele>
        <time>2016-10-19T07:39:20Z</time>
      </trkpt>
      <trkpt lat="49.18032" lon="6.98465">
        <ele>303.91</ele>
        <time>2016-10-19T07:39:36Z</time>
      </trkpt>
      <trkpt lat="49.18024" lon="6.98476">
        <ele>302.47</ele>
        <time>2016-10-19T07:39:49Z</time>
      </trkpt>
      <trkpt lat="49.1801" lon="6.98496">
        <ele>301.51</ele>
        <time>2016-10-19T07:40:05Z</time>
      </trkpt>
      <trkpt lat="49.18001" lon="6.9851">
        <ele>301.51</ele>
        <time>2016-10-19T07:40:19Z</time>
      </trkpt>
      <trkpt lat="49.17994" lon="6.98526">
        <ele>305.36</ele>
        <time>2016-10-19T07:40:32Z</time>
      </trkpt>
      <trkpt lat="49.17982" lon="6.98543">
        <ele>303.43</ele>
        <time>2016-10-19T07:40:48Z</time>
      </trkpt>
      <trkpt lat="49.17971" lon="6.98556">
        <ele>301.03</ele>
        <time>2016-10-19T07:41:03Z</time>
      </trkpt>
      <trkpt lat="49.1796" lon="6.98572">
        <ele>300.07</ele>
        <time>2016-10-19T07:41:18Z</time>
      </trkpt>
      <trkpt lat="49.17953" lon="6.98589">
        <ele>302.47</ele>
        <time>2016-10-19T07:41:31Z</time>
      </trkpt>
      <trkpt lat="49.17946" lon="6.98614">
        <ele>304.39</ele>
        <time>2016-10-19T07:41:46Z</time>
      </trkpt>
      <trkpt lat="49.17938" lon="6.98639">
        <ele>306.32</ele>
        <time>2016-10-19T07:42:02Z</time>
      </trkpt>
      <trkpt lat="49.17935" lon="6.98652">
        <ele>307.28</ele>
        <time>2016-10-19T07:42:16Z</time>
      </trkpt>
      <trkpt lat="49.17931" lon="6.98666">
        <ele>307.28</ele>
        <time>2016-10-19T07:42:32Z</time>
      </trkpt>
      <trkpt lat="49.17927" lon="6.98678">
        <ele>306.8</ele>
        <time>2016-10-19T07:42:45Z</time>
      </trkpt>
      <trkpt lat="49.17924" lon="6.98692">
        <ele>307.76</ele>
        <time>2016-10-19T07:43:01Z</time>
      </trkpt>
      <trkpt lat="49.1792" lon="6.98711">
        <ele>308.24</ele>
        <time>2016-10-19T07:43:17Z</time>
      </trkpt>
      <trkpt lat="49.17918" lon="6.9873">
        <ele>308.24</ele>
        <time>2016-10-19T07:43:34Z</time>
      </trkpt>
      <trkpt lat="49.17913" lon="6.98749">
        <ele>307.28</ele>
        <time>2016-10-19T07:43:50Z</time>
      </trkpt>
      <trkpt lat="49.17907" lon="6.98768">
        <ele>306.32</ele>
        <time>2016-10-19T07:44:06Z</time>
      </trkpt>
      <trkpt lat="49.17902" lon="6.98785">
        <ele>304.88</ele>
        <time>2016-10-19T07:44:21Z</time>
      </trkpt>
      <trkpt lat="49.17902" lon="6.98804">
        <ele>304.39</ele>
        <time>2016-10-19T07:44:36Z</time>
      </trkpt>
      <trkpt lat="49.17901" lon="6.98827">
        <ele>307.76</ele>
        <time>2016-10-19T07:44:51Z</time>
      </trkpt>
      <trkpt lat="49.17901" lon="6.98846">
        <ele>308.72</ele>
        <time>2016-10-19T07:45:06Z</time>
      </trkpt>
      <trkpt lat="49.179" lon="6.9886">
        <ele>308.24</ele>
        <time>2016-10-19T07:45:18Z</time>
      </trkpt>
      <trkpt lat="49.17898" lon="6.98883">
        <ele>308.24</ele>
        <time>2016-10-19T07:45:35Z</time>
      </trkpt>
      <trkpt lat="49.17898" lon="6.98907">
        <ele>307.76</ele>
        <time>2016-10-19T07:45:54Z</time>
      </trkpt>
      <trkpt lat="49.17898" lon="6.98933">
        <ele>309.68</ele>
        <time>2016-10-19T07:46:10Z</time>
      </trkpt>
      <trkpt lat="49.17895" lon="6.98949">
        <ele>310.16</ele>
        <time>2016-10-19T07:46:26Z</time>
      </trkpt>
      <trkpt lat="49.17895" lon="6.98964">
        <ele>310.16</ele>
        <time>2016-10-19T07:46:42Z</time>
      </trkpt>
      <trkpt lat="49.17897" lon="6.98985">
        <ele>309.68</ele>
        <time>2016-10-19T07:46:59Z</time>
      </trkpt>
      <trkpt lat="49.17898" lon="6.99006">
        <ele>310.64</ele>
        <time>2016-10-19T07:47:18Z</time>
      </trkpt>
      <trkpt lat="49.17895" lon="6.99022">
        <ele>311.12</ele>
        <time>2016-10-19T07:47:32Z</time>
      </trkpt>
      <trkpt lat="49.17896" lon="6.99041">
        <ele>314.01</ele>
        <time>2016-10-19T07:47:45Z</time>
      </trkpt>
      <trkpt lat="49.17897" lon="6.99061">
        <ele>313.05</ele>
        <time>2016-10-19T07:48:02Z</time>
      </trkpt>
      <trkpt lat="49.179" lon="6.99076">
        <ele>311.6</ele>
        <time>2016-10-19T07:48:19Z</time>
      </trkpt>
      <trkpt lat="49.17906" lon="6.99092">
        <ele>311.6</ele>
        <time>2016-10-19T07:48:34Z</time>
      </trkpt>
      <trkpt lat="49.17909" lon="6.99112">
        <ele>312.09</ele>
        <time>2016-10-19T07:48:52Z</time>
      </trkpt>
      <trkpt lat="49.17911" lon="6.99134">
        <ele>311.12</ele>
        <time>2016-10-19T07:49:08Z</time>
      </trkpt>
      <trkpt lat="49.17913" lon="6.9915">
        <ele>310.16</ele>
        <time>2016-10-19T07:49:23Z</time>
      </trkpt>
      <trkpt lat="49.1792" lon="6.99162">
        <ele>307.28</ele>
        <time>2016-10-19T07:49:40Z</time>
      </trkpt>
      <trkpt lat="49.17921" lon="6.99178">
        <ele>304.88</ele>
        <time>2016-10-19T07:49:53Z</time>
      </trkpt>
      <trkpt lat="49.17921" lon="6.99188">
        <ele>303.43</ele>
        <time>2016-10-19T07:50:08Z</time>
      </trkpt>
      <trkpt lat="49.17919" lon="6.99188">
        <ele>304.88</ele>
        <time>2016-10-19T07:50:28Z</time>
      </trkpt>
      <trkpt lat="49.1792" lon="6.99192">
        <ele>306.32</ele>
        <time>2016-10-19T07:50:58Z</time>
      </trkpt>
      <trkpt lat="49.17921" lon="6.99192">
        <ele>306.32</ele>
        <time>2016-10-19T07:51:23Z</time>
      </trkpt>
      <trkpt lat="49.17923" lon="6.99195">
        <ele>309.2</ele>
        <time>2016-10-19T07:51:52Z</time>
      </trkpt>
      <trkpt lat="49.17921" lon="6.99198">
        <ele>307.76</ele>
        <time>2016-10-19T07:52:12Z</time>
      </trkpt>
      <trkpt lat="49.17915" lon="6.99209">
        <ele>308.72</ele>
        <time>2016-10-19T07:52:27Z</time>
      </trkpt>
      <trkpt lat="49.1791" lon="6.99218">
        <ele>310.64</ele>
        <time>2016-10-19T07:52:37Z</time>
      </trkpt>
      <trkpt lat="49.17901" lon="6.99234">
        <ele>313.53</ele>
        <time>2016-10-19T07:52:53Z</time>
      </trkpt>
      <trkpt lat="49.17891" lon="6.99247">
        <ele>315.45</ele>
        <time>2016-10-19T07:53:08Z</time>
      </trkpt>
      <trkpt lat="49.17881" lon="6.99257">
        <ele>317.37</ele>
        <time>2016-10-19T07:53:22Z</time>
      </trkpt>
      <trkpt lat="49.17868" lon="6.99267">
        <ele>318.33</ele>
        <time>2016-10-19T07:53:40Z</time>
      </trkpt>
      <trkpt lat="49.17855" lon="6.99276">
        <ele>320.74</ele>
        <time>2016-10-19T07:53:56Z</time>
      </trkpt>
      <trkpt lat="49.17843" lon="6.99286">
        <ele>322.66</ele>
        <time>2016-10-19T07:54:10Z</time>
      </trkpt>
      <trkpt lat="49.17831" lon="6.99297">
        <ele>325.06</ele>
        <time>2016-10-19T07:54:24Z</time>
      </trkpt>
      <trkpt lat="49.17813" lon="6.99309">
        <ele>326.99</ele>
        <time>2016-10-19T07:54:43Z</time>
      </trkpt>
      <trkpt lat="49.17799" lon="6.99316">
        <ele>328.91</ele>
        <time>2016-10-19T07:54:58Z</time>
      </trkpt>
      <trkpt lat="49.17785" lon="6.99323">
        <ele>331.31</ele>
        <time>2016-10-19T07:55:13Z</time>
      </trkpt>
      <trkpt lat="49.1777" lon="6.9933">
        <ele>333.71</ele>
        <time>2016-10-19T07:55:28Z</time>
      </trkpt>
      <trkpt lat="49.17757" lon="6.99339">
        <ele>336.6</ele>
        <time>2016-10-19T07:55:41Z</time>
      </trkpt>
      <trkpt lat="49.17746" lon="6.99344">
        <ele>338.04</ele>
        <time>2016-10-19T07:55:55Z</time>
      </trkpt>
      <trkpt lat="49.17735" lon="6.99347">
        <ele>336.12</ele>
        <time>2016-10-19T07:56:09Z</time>
      </trkpt>
      <trkpt lat="49.17727" lon="6.99352">
        <ele>335.64</ele>
        <time>2016-10-19T07:56:23Z</time>
      </trkpt>
      <trkpt lat="49.17728" lon="6.99352">
        <ele>334.68</ele>
        <time>2016-10-19T07:56:43Z</time>
      </trkpt>
      <trkpt lat="49.17728" lon="6.99353">
        <ele>333.71</ele>
        <time>2016-10-19T07:57:05Z</time>
      </trkpt>
      <trkpt lat="49.17728" lon="6.99354">
        <ele>333.23</ele>
        <time>2016-10-19T07:57:26Z</time>
      </trkpt>
      <trkpt lat="49.17728" lon="6.99353">
        <ele>333.71</ele>
        <time>2016-10-19T07:57:49Z</time>
      </trkpt>
      <trkpt lat="49.17723" lon="6.99356">
        <ele>335.16</ele>
        <time>2016-10-19T07:58:06Z</time>
      </trkpt>
      <trkpt lat="49.17719" lon="6.99357">
        <ele>335.64</ele>
        <time>2016-10-19T07:58:10Z</time>
      </trkpt>
      <trkpt lat="49.17709" lon="6.99363">
        <ele>335.64</ele>
        <time>2016-10-19T07:58:22Z</time>
      </trkpt>
      <trkpt lat="49.17696" lon="6.99376">
        <ele>334.2</ele>
        <time>2016-10-19T07:58:38Z</time>
      </trkpt>
      <trkpt lat="49.17684" lon="6.99387">
        <ele>334.2</ele>
        <time>2016-10-19T07:58:52Z</time>
      </trkpt>
      <trkpt lat="49.17669" lon="6.99397">
        <ele>333.23</ele>
        <time>2016-10-19T07:59:07Z</time>
      </trkpt>
      <trkpt lat="49.17654" lon="6.99407">
        <ele>331.79</ele>
        <time>2016-10-19T07:59:22Z</time>
      </trkpt>
      <trkpt lat="49.17637" lon="6.9942">
        <ele>330.35</ele>
        <time>2016-10-19T07:59:39Z</time>
      </trkpt>
      <trkpt lat="49.17622" lon="6.99432">
        <ele>330.35</ele>
        <time>2016-10-19T07:59:54Z</time>
      </trkpt>
      <trkpt lat="49.17607" lon="6.99445">
        <ele>330.83</ele>
        <time>2016-10-19T08:00:10Z</time>
      </trkpt>
      <trkpt lat="49.1759" lon="6.99459">
        <ele>331.31</ele>
        <time>2016-10-19T08:00:27Z</time>
      </trkpt>
      <trkpt lat="49.17586" lon="6.99462">
        <ele>331.31</ele>
        <time>2016-10-19T08:00:31Z</time>
      </trkpt>
      <trkpt lat="49.17571" lon="6.99482">
        <ele>329.39</ele>
        <time>2016-10-19T08:00:50Z</time>
      </trkpt>
      <trkpt lat="49.17557" lon="6.99497">
        <ele>328.43</ele>
        <time>2016-10-19T08:01:06Z</time>
      </trkpt>
      <trkpt lat="49.1754" lon="6.99508">
        <ele>329.87</ele>
        <time>2016-10-19T08:01:23Z</time>
      </trkpt>
      <trkpt lat="49.17526" lon="6.99519">
        <ele>330.35</ele>
        <time>2016-10-19T08:01:38Z</time>
      </trkpt>
      <trkpt lat="49.17512" lon="6.9953">
        <ele>329.87</ele>
        <time>2016-10-19T08:01:54Z</time>
      </trkpt>
      <trkpt lat="49.17509" lon="6.99532">
        <ele>329.87</ele>
        <time>2016-10-19T08:01:57Z</time>
      </trkpt>
      <trkpt lat="49.17506" lon="6.99533">
        <ele>329.87</ele>
        <time>2016-10-19T08:02:00Z</time>
      </trkpt>
      <trkpt lat="49.17489" lon="6.99545">
        <ele>329.39</ele>
        <time>2016-10-19T08:02:17Z</time>
      </trkpt>
      <trkpt lat="49.17472" lon="6.99556">
        <ele>328.43</ele>
        <time>2016-10-19T08:02:34Z</time>
      </trkpt>
      <trkpt lat="49.17466" lon="6.99563">
        <ele>326.5</ele>
        <time>2016-10-19T08:02:49Z</time>
      </trkpt>
      <trkpt lat="49.17467" lon="6.99563">
        <ele>326.02</ele>
        <time>2016-10-19T08:03:15Z</time>
      </trkpt>
      <trkpt lat="49.17468" lon="6.99563">
        <ele>326.5</ele>
        <time>2016-10-19T08:03:40Z</time>
      </trkpt>
      <trkpt lat="49.17467" lon="6.99566">
        <ele>326.5</ele>
        <time>2016-10-19T08:04:03Z</time>
      </trkpt>
      <trkpt lat="49.17464" lon="6.99566">
        <ele>326.99</ele>
        <time>2016-10-19T08:04:29Z</time>
      </trkpt>
      <trkpt lat="49.17465" lon="6.99569">
        <ele>329.39</ele>
        <time>2016-10-19T08:04:43Z</time>
      </trkpt>
      <trkpt lat="49.17458" lon="6.99572">
        <ele>326.5</ele>
        <time>2016-10-19T08:04:56Z</time>
      </trkpt>
      <trkpt lat="49.17445" lon="6.99581">
        <ele>324.58</ele>
        <time>2016-10-19T08:05:11Z</time>
      </trkpt>
      <trkpt lat="49.17444" lon="6.99582">
        <ele>324.58</ele>
        <time>2016-10-19T08:05:12Z</time>
      </trkpt>
      <trkpt lat="49.17425" lon="6.99591">
        <ele>322.66</ele>
        <time>2016-10-19T08:05:30Z</time>
      </trkpt>
      <trkpt lat="49.17418" lon="6.99594">
        <ele>321.7</ele>
        <time>2016-10-19T08:05:36Z</time>
      </trkpt>
      <trkpt lat="49.17404" lon="6.99601">
        <ele>317.85</ele>
        <time>2016-10-19T08:05:50Z</time>
      </trkpt>
      <trkpt lat="49.17399" lon="6.99611">
        <ele>322.18</ele>
        <time>2016-10-19T08:06:07Z</time>
      </trkpt>
      <trkpt lat="49.17399" lon="6.99612">
        <ele>323.62</ele>
        <time>2016-10-19T08:06:34Z</time>
      </trkpt>
      <trkpt lat="49.174" lon="6.99613">
        <ele>327.47</ele>
        <time>2016-10-19T08:07:01Z</time>
      </trkpt>
      <trkpt lat="49.17396" lon="6.99617">
        <ele>328.91</ele>
        <time>2016-10-19T08:07:16Z</time>
      </trkpt>
      <trkpt lat="49.17382" lon="6.99633">
        <ele>329.87</ele>
        <time>2016-10-19T08:07:30Z</time>
      </trkpt>
      <trkpt lat="49.1737" lon="6.99654">
        <ele>332.75</ele>
        <time>2016-10-19T08:07:43Z</time>
      </trkpt>
      <trkpt lat="49.17361" lon="6.99679">
        <ele>334.68</ele>
        <time>2016-10-19T08:07:57Z</time>
      </trkpt>
      <trkpt lat="49.17365" lon="6.99694">
        <ele>331.79</ele>
        <time>2016-10-19T08:08:09Z</time>
      </trkpt>
      <trkpt lat="49.17373" lon="6.99711">
        <ele>326.99</ele>
        <time>2016-10-19T08:08:26Z</time>
      </trkpt>
      <trkpt lat="49.17378" lon="6.9972">
        <ele>325.54</ele>
        <time>2016-10-19T08:08:35Z</time>
      </trkpt>
      <trkpt lat="49.17388" lon="6.99738">
        <ele>322.66</ele>
        <time>2016-10-19T08:08:52Z</time>
      </trkpt>
      <trkpt lat="49.17399" lon="6.9976">
        <ele>323.14</ele>
        <time>2016-10-19T08:09:11Z</time>
      </trkpt>
      <trkpt lat="49.17405" lon="6.99779">
        <ele>320.74</ele>
        <time>2016-10-19T08:09:26Z</time>
      </trkpt>
      <trkpt lat="49.1741" lon="6.99805">
        <ele>317.37</ele>
        <time>2016-10-19T08:09:44Z</time>
      </trkpt>
      <trkpt lat="49.17414" lon="6.99825">
        <ele>314.49</ele>
        <time>2016-10-19T08:09:59Z</time>
      </trkpt>
      <trkpt lat="49.17421" lon="6.99846">
        <ele>312.09</ele>
        <time>2016-10-19T08:10:14Z</time>
      </trkpt>
      <trkpt lat="49.17425" lon="6.99859">
        <ele>308.24</ele>
        <time>2016-10-19T08:10:30Z</time>
      </trkpt>
      <trkpt lat="49.17432" lon="6.9987">
        <ele>306.32</ele>
        <time>2016-10-19T08:10:45Z</time>
      </trkpt>
      <trkpt lat="49.17435" lon="6.99874">
        <ele>305.84</ele>
        <time>2016-10-19T08:10:51Z</time>
      </trkpt>
      <trkpt lat="49.17445" lon="6.99893">
        <ele>303.91</ele>
        <time>2016-10-19T08:11:07Z</time>
      </trkpt>
      <trkpt lat="49.17456" lon="6.99908">
        <ele>301.99</ele>
        <time>2016-10-19T08:11:23Z</time>
      </trkpt>
      <trkpt lat="49.17466" lon="6.99926">
        <ele>300.07</ele>
        <time>2016-10-19T08:11:40Z</time>
      </trkpt>
      <trkpt lat="49.17475" lon="6.99942">
        <ele>297.67</ele>
        <time>2016-10-19T08:11:55Z</time>
      </trkpt>
      <trkpt lat="49.17485" lon="6.99955">
        <ele>295.74</ele>
        <time>2016-10-19T08:12:10Z</time>
      </trkpt>
      <trkpt lat="49.17492" lon="6.99976">
        <ele>294.3</ele>
        <time>2016-10-19T08:12:26Z</time>
      </trkpt>
      <trkpt lat="49.175" lon="6.99993">
        <ele>291.42</ele>
        <time>2016-10-19T08:12:41Z</time>
      </trkpt>
      <trkpt lat="49.17504" lon="7.00002">
        <ele>290.94</ele>
        <time>2016-10-19T08:12:49Z</time>
      </trkpt>
      <trkpt lat="49.17505" lon="7.00004">
        <ele>290.94</ele>
        <time>2016-10-19T08:12:51Z</time>
      </trkpt>
      <trkpt lat="49.17513" lon="7.00022">
        <ele>288.53</ele>
        <time>2016-10-19T08:13:07Z</time>
      </trkpt>
      <trkpt lat="49.17517" lon="7.00032">
        <ele>287.57</ele>
        <time>2016-10-19T08:13:16Z</time>
      </trkpt>
      <trkpt lat="49.17524" lon="7.00051">
        <ele>284.69</ele>
        <time>2016-10-19T08:13:32Z</time>
      </trkpt>
      <trkpt lat="49.17531" lon="7.00067">
        <ele>281.32</ele>
        <time>2016-10-19T08:13:46Z</time>
      </trkpt>
      <trkpt lat="49.17537" lon="7.00087">
        <ele>278.92</ele>
        <time>2016-10-19T08:14:01Z</time>
      </trkpt>
      <trkpt lat="49.1754" lon="7.00099">
        <ele>277.48</ele>
        <time>2016-10-19T08:14:10Z</time>
      </trkpt>
      <trkpt lat="49.17544" lon="7.00128">
        <ele>274.11</ele>
        <time>2016-10-19T08:14:29Z</time>
      </trkpt>
      <trkpt lat="49.17548" lon="7.0015">
        <ele>270.27</ele>
        <time>2016-10-19T08:14:45Z</time>
      </trkpt>
      <trkpt lat="49.17553" lon="7.00175">
        <ele>266.42</ele>
        <time>2016-10-19T08:15:02Z</time>
      </trkpt>
      <trkpt lat="49.17562" lon="7.00197">
        <ele>263.54</ele>
        <time>2016-10-19T08:15:19Z</time>
      </trkpt>
      <trkpt lat="49.1757" lon="7.00218">
        <ele>261.14</ele>
        <time>2016-10-19T08:15:35Z</time>
      </trkpt>
      <trkpt lat="49.17577" lon="7.0024">
        <ele>259.21</ele>
        <time>2016-10-19T08:15:51Z</time>
      </trkpt>
      <trkpt lat="49.17586" lon="7.00257">
        <ele>256.81</ele>
        <time>2016-10-19T08:16:06Z</time>
      </trkpt>
      <trkpt lat="49.17598" lon="7.00276">
        <ele>255.85</ele>
        <time>2016-10-19T08:16:24Z</time>
      </trkpt>
      <trkpt lat="49.17611" lon="7.00281">
        <ele>258.25</ele>
        <time>2016-10-19T08:16:39Z</time>
      </trkpt>
      <trkpt lat="49.17623" lon="7.00278">
        <ele>259.21</ele>
        <time>2016-10-19T08:16:53Z</time>
      </trkpt>
      <trkpt lat="49.17624" lon="7.00277">
        <ele>259.21</ele>
        <time>2016-10-19T08:16:54Z</time>
      </trkpt>
      <trkpt lat="49.17641" lon="7.0027">
        <ele>259.21</ele>
        <time>2016-10-19T08:17:12Z</time>
      </trkpt>
      <trkpt lat="49.17648" lon="7.00277">
        <ele>260.65</ele>
        <time>2016-10-19T08:17:20Z</time>
      </trkpt>
      <trkpt lat="49.17654" lon="7.00281">
        <ele>261.62</ele>
        <time>2016-10-19T08:17:36Z</time>
      </trkpt>
      <trkpt lat="49.17665" lon="7.003">
        <ele>263.06</ele>
        <time>2016-10-19T08:17:52Z</time>
      </trkpt>
      <trkpt lat="49.17677" lon="7.00312">
        <ele>264.5</ele>
        <time>2016-10-19T08:18:08Z</time>
      </trkpt>
      <trkpt lat="49.17681" lon="7.00308">
        <ele>264.02</ele>
        <time>2016-10-19T08:18:13Z</time>
      </trkpt>
      <trkpt lat="49.17697" lon="7.00299">
        <ele>262.58</ele>
        <time>2016-10-19T08:18:30Z</time>
      </trkpt>
      <trkpt lat="49.17705" lon="7.00299">
        <ele>261.62</ele>
        <time>2016-10-19T08:18:38Z</time>
      </trkpt>
      <trkpt lat="49.17716" lon="7.00302">
        <ele>261.62</ele>
        <time>2016-10-19T08:18:53Z</time>
      </trkpt>
      <trkpt lat="49.17731" lon="7.0031">
        <ele>258.25</ele>
        <time>2016-10-19T08:19:10Z</time>
      </trkpt>
      <trkpt lat="49.17741" lon="7.00313">
        <ele>257.29</ele>
        <time>2016-10-19T08:19:24Z</time>
      </trkpt>
      <trkpt lat="49.17744" lon="7.00315">
        <ele>256.81</ele>
        <time>2016-10-19T08:19:39Z</time>
      </trkpt>
      <trkpt lat="49.17748" lon="7.00318">
        <ele>257.29</ele>
        <time>2016-10-19T08:19:54Z</time>
      </trkpt>
      <trkpt lat="49.17754" lon="7.00319">
        <ele>257.77</ele>
        <time>2016-10-19T08:20:05Z</time>
      </trkpt>
      <trkpt lat="49.17756" lon="7.00317">
        <ele>257.77</ele>
        <time>2016-10-19T08:20:22Z</time>
      </trkpt>
      <trkpt lat="49.17758" lon="7.00317">
        <ele>257.77</ele>
        <time>2016-10-19T08:20:34Z</time>
      </trkpt>
      <trkpt lat="49.17777" lon="7.0032">
        <ele>257.77</ele>
        <time>2016-10-19T08:20:51Z</time>
      </trkpt>
      <trkpt lat="49.17797" lon="7.0033">
        <ele>253.93</ele>
        <time>2016-10-19T08:21:09Z</time>
      </trkpt>
      <trkpt lat="49.17821" lon="7.00343">
        <ele>247.68</ele>
        <time>2016-10-19T08:21:31Z</time>
      </trkpt>
      <trkpt lat="49.17835" lon="7.00352">
        <ele>244.79</ele>
        <time>2016-10-19T08:21:47Z</time>
      </trkpt>
      <trkpt lat="49.1785" lon="7.00358">
        <ele>240.95</ele>
        <time>2016-10-19T08:22:07Z</time>
      </trkpt>
      <trkpt lat="49.17863" lon="7.00366">
        <ele>240.47</ele>
        <time>2016-10-19T08:22:23Z</time>
      </trkpt>
      <trkpt lat="49.17876" lon="7.00373">
        <ele>239.99</ele>
        <time>2016-10-19T08:22:39Z</time>
      </trkpt>
      <trkpt lat="49.17888" lon="7.00381">
        <ele>238.06</ele>
        <time>2016-10-19T08:22:54Z</time>
      </trkpt>
      <trkpt lat="49.17896" lon="7.00388">
        <ele>237.1</ele>
        <time>2016-10-19T08:23:14Z</time>
      </trkpt>
      <trkpt lat="49.17918" lon="7.00405">
        <ele>231.33</ele>
        <time>2016-10-19T08:23:34Z</time>
      </trkpt>
      <trkpt lat="49.17932" lon="7.00412">
        <ele>227.97</ele>
        <time>2016-10-19T08:23:51Z</time>
      </trkpt>
      <trkpt lat="49.17942" lon="7.00419">
        <ele>228.93</ele>
        <time>2016-10-19T08:24:06Z</time>
      </trkpt>
      <trkpt lat="49.17951" lon="7.00424">
        <ele>229.89</ele>
        <time>2016-10-19T08:24:17Z</time>
      </trkpt>
      <trkpt lat="49.17972" lon="7.00434">
        <ele>228.45</ele>
        <time>2016-10-19T08:24:36Z</time>
      </trkpt>
      <trkpt lat="49.1799" lon="7.00441">
        <ele>227.97</ele>
        <time>2016-10-19T08:24:52Z</time>
      </trkpt>
      <trkpt lat="49.18003" lon="7.00449">
        <ele>226.05</ele>
        <time>2016-10-19T08:25:09Z</time>
      </trkpt>
      <trkpt lat="49.18011" lon="7.00448">
        <ele>225.57</ele>
        <time>2016-10-19T08:25:17Z</time>
      </trkpt>
      <trkpt lat="49.18025" lon="7.0045">
        <ele>224.12</ele>
        <time>2016-10-19T08:25:31Z</time>
      </trkpt>
      <trkpt lat="49.1804" lon="7.00446">
        <ele>222.68</ele>
        <time>2016-10-19T08:25:47Z</time>
      </trkpt>
      <trkpt lat="49.18054" lon="7.0044">
        <ele>219.8</ele>
        <time>2016-10-19T08:26:02Z</time>
      </trkpt>
      <trkpt lat="49.18063" lon="7.00437">
        <ele>217.4</ele>
        <time>2016-10-19T08:26:18Z</time>
      </trkpt>
      <trkpt lat="49.18072" lon="7.00433">
        <ele>215.47</ele>
        <time>2016-10-19T08:26:34Z</time>
      </trkpt>
      <trkpt lat="49.18083" lon="7.00428">
        <ele>212.11</ele>
        <time>2016-10-19T08:26:47Z</time>
      </trkpt>
      <trkpt lat="49.18095" lon="7.00419">
        <ele>208.74</ele>
        <time>2016-10-19T08:27:01Z</time>
      </trkpt>
      <trkpt lat="49.1811" lon="7.00414">
        <ele>206.34</ele>
        <time>2016-10-19T08:27:17Z</time>
      </trkpt>
      <trkpt lat="49.18123" lon="7.0041">
        <ele>203.94</ele>
        <time>2016-10-19T08:27:31Z</time>
      </trkpt>
      <trkpt lat="49.18136" lon="7.0041">
        <ele>198.17</ele>
        <time>2016-10-19T08:27:46Z</time>
      </trkpt>
      <trkpt lat="49.18149" lon="7.00409">
        <ele>195.28</ele>
        <time>2016-10-19T08:28:01Z</time>
      </trkpt>
      <trkpt lat="49.18166" lon="7.00405">
        <ele>193.84</ele>
        <time>2016-10-19T08:28:17Z</time>
      </trkpt>
      <trkpt lat="49.18185" lon="7.00409">
        <ele>195.77</ele>
        <time>2016-10-19T08:28:34Z</time>
      </trkpt>
      <trkpt lat="49.18205" lon="7.00413">
        <ele>199.61</ele>
        <time>2016-10-19T08:28:51Z</time>
      </trkpt>
      <trkpt lat="49.18222" lon="7.0042">
        <ele>199.13</ele>
        <time>2016-10-19T08:29:08Z</time>
      </trkpt>
      <trkpt lat="49.18233" lon="7.0043">
        <ele>201.05</ele>
        <time>2016-10-19T08:29:25Z</time>
      </trkpt>
      <trkpt lat="49.18242" lon="7.00451">
        <ele>199.61</ele>
        <time>2016-10-19T08:29:41Z</time>
      </trkpt>
      <trkpt lat="49.18246" lon="7.0046">
        <ele>200.09</ele>
        <time>2016-10-19T08:29:51Z</time>
      </trkpt>
      <trkpt lat="49.18258" lon="7.00456">
        <ele>200.57</ele>
        <time>2016-10-19T08:30:04Z</time>
      </trkpt>
      <trkpt lat="49.18267" lon="7.00468">
        <ele>202.01</ele>
        <time>2016-10-19T08:30:21Z</time>
      </trkpt>
      <trkpt lat="49.18275" lon="7.00481">
        <ele>202.98</ele>
        <time>2016-10-19T08:30:39Z</time>
      </trkpt>
      <trkpt lat="49.18284" lon="7.00491">
        <ele>202.49</ele>
        <time>2016-10-19T08:30:53Z</time>
      </trkpt>
      <trkpt lat="49.18293" lon="7.00506">
        <ele>202.01</ele>
        <time>2016-10-19T08:31:06Z</time>
      </trkpt>
      <trkpt lat="49.18307" lon="7.00512">
        <ele>202.98</ele>
        <time>2016-10-19T08:31:24Z</time>
      </trkpt>
      <trkpt lat="49.18307" lon="7.00513">
        <ele>202.98</ele>
        <time>2016-10-19T08:31:41Z</time>
      </trkpt>
      <trkpt lat="49.18316" lon="7.00512">
        <ele>201.53</ele>
        <time>2016-10-19T08:31:53Z</time>
      </trkpt>
      <trkpt lat="49.18327" lon="7.00509">
        <ele>201.53</ele>
        <time>2016-10-19T08:32:09Z</time>
      </trkpt>
      <trkpt lat="49.18334" lon="7.00499">
        <ele>203.46</ele>
        <time>2016-10-19T08:32:24Z</time>
      </trkpt>
      <trkpt lat="49.18333" lon="7.00498">
        <ele>201.53</ele>
        <time>2016-10-19T08:32:43Z</time>
      </trkpt>
      <trkpt lat="49.18332" lon="7.00485">
        <ele>201.05</ele>
        <time>2016-10-19T08:33:03Z</time>
      </trkpt>
      <trkpt lat="49.18332" lon="7.00464">
        <ele>200.09</ele>
        <time>2016-10-19T08:33:19Z</time>
      </trkpt>
      <trkpt lat="49.18333" lon="7.00454">
        <ele>198.65</ele>
        <time>2016-10-19T08:33:33Z</time>
      </trkpt>
      <trkpt lat="49.1833" lon="7.00437">
        <ele>196.73</ele>
        <time>2016-10-19T08:33:49Z</time>
      </trkpt>
      <trkpt lat="49.18328" lon="7.00418">
        <ele>194.8</ele>
        <time>2016-10-19T08:34:05Z</time>
      </trkpt>
      <trkpt lat="49.18327" lon="7.00392">
        <ele>194.8</ele>
        <time>2016-10-19T08:34:24Z</time>
      </trkpt>
      <trkpt lat="49.18327" lon="7.00381">
        <ele>195.28</ele>
        <time>2016-10-19T08:34:32Z</time>
      </trkpt>
      <trkpt lat="49.18327" lon="7.00359">
        <ele>197.21</ele>
        <time>2016-10-19T08:34:48Z</time>
      </trkpt>
      <trkpt lat="49.18327" lon="7.00348">
        <ele>196.73</ele>
        <time>2016-10-19T08:35:04Z</time>
      </trkpt>
      <trkpt lat="49.18327" lon="7.00335">
        <ele>197.69</ele>
        <time>2016-10-19T08:35:22Z</time>
      </trkpt>
      <trkpt lat="49.18327" lon="7.00306">
        <ele>198.65</ele>
        <time>2016-10-19T08:35:43Z</time>
      </trkpt>
      <trkpt lat="49.18326" lon="7.00281">
        <ele>200.57</ele>
        <time>2016-10-19T08:35:59Z</time>
      </trkpt>
      <trkpt lat="49.18325" lon="7.00256">
        <ele>201.53</ele>
        <time>2016-10-19T08:36:15Z</time>
      </trkpt>
      <trkpt lat="49.18329" lon="7.00228">
        <ele>201.53</ele>
        <time>2016-10-19T08:36:35Z</time>
      </trkpt>
      <trkpt lat="49.18334" lon="7.00207">
        <ele>201.53</ele>
        <time>2016-10-19T08:36:50Z</time>
      </trkpt>
      <trkpt lat="49.1834" lon="7.00191">
        <ele>201.53</ele>
        <time>2016-10-19T08:37:03Z</time>
      </trkpt>
      <trkpt lat="49.18348" lon="7.0017">
        <ele>199.61</ele>
        <time>2016-10-19T08:37:18Z</time>
      </trkpt>
      <trkpt lat="49.18349" lon="7.00166">
        <ele>199.61</ele>
        <time>2016-10-19T08:37:21Z</time>
      </trkpt>
      <trkpt lat="49.18357" lon="7.00138">
        <ele>197.69</ele>
        <time>2016-10-19T08:37:40Z</time>
      </trkpt>
      <trkpt lat="49.18362" lon="7.00106">
        <ele>197.69</ele>
        <time>2016-10-19T08:37:59Z</time>
      </trkpt>
      <trkpt lat="49.18367" lon="7.00077">
        <ele>199.13</ele>
        <time>2016-10-19T08:38:17Z</time>
      </trkpt>
      <trkpt lat="49.18375" lon="7.00056">
        <ele>199.13</ele>
        <time>2016-10-19T08:38:32Z</time>
      </trkpt>
      <trkpt lat="49.18388" lon="7.00032">
        <ele>201.53</ele>
        <time>2016-10-19T08:38:51Z</time>
      </trkpt>
      <trkpt lat="49.18404" lon="7.00016">
        <ele>202.49</ele>
        <time>2016-10-19T08:39:08Z</time>
      </trkpt>
      <trkpt lat="49.18416" lon="7.00007">
        <ele>202.49</ele>
        <time>2016-10-19T08:39:21Z</time>
      </trkpt>
      <trkpt lat="49.18434" lon="6.99999">
        <ele>202.49</ele>
        <time>2016-10-19T08:39:40Z</time>
      </trkpt>
      <trkpt lat="49.18451" lon="6.99994">
        <ele>203.94</ele>
        <time>2016-10-19T08:39:56Z</time>
      </trkpt>
      <trkpt lat="49.18471" lon="6.99986">
        <ele>203.94</ele>
        <time>2016-10-19T08:40:15Z</time>
      </trkpt>
      <trkpt lat="49.18487" lon="6.9998">
        <ele>205.38</ele>
        <time>2016-10-19T08:40:30Z</time>
      </trkpt>
      <trkpt lat="49.18504" lon="6.99973">
        <ele>206.82</ele>
        <time>2016-10-19T08:40:48Z</time>
      </trkpt>
      <trkpt lat="49.18516" lon="6.99964">
        <ele>206.82</ele>
        <time>2016-10-19T08:41:01Z</time>
      </trkpt>
      <trkpt lat="49.18531" lon="6.99946">
        <ele>207.3</ele>
        <time>2016-10-19T08:41:19Z</time>
      </trkpt>
      <trkpt lat="49.18538" lon="6.99938">
        <ele>206.82</ele>
        <time>2016-10-19T08:41:28Z</time>
      </trkpt>
      <trkpt lat="49.18551" lon="6.99917">
        <ele>209.22</ele>
        <time>2016-10-19T08:41:44Z</time>
      </trkpt>
      <trkpt lat="49.18561" lon="6.999">
        <ele>209.22</ele>
        <time>2016-10-19T08:42:00Z</time>
      </trkpt>
      <trkpt lat="49.18572" lon="6.99885">
        <ele>211.63</ele>
        <time>2016-10-19T08:42:14Z</time>
      </trkpt>
      <trkpt lat="49.18586" lon="6.99871">
        <ele>213.55</ele>
        <time>2016-10-19T08:42:31Z</time>
      </trkpt>
      <trkpt lat="49.18601" lon="6.99854">
        <ele>214.99</ele>
        <time>2016-10-19T08:42:49Z</time>
      </trkpt>
      <trkpt lat="49.18615" lon="6.99841">
        <ele>216.43</ele>
        <time>2016-10-19T08:43:07Z</time>
      </trkpt>
      <trkpt lat="49.18627" lon="6.99829">
        <ele>214.99</ele>
        <time>2016-10-19T08:43:26Z</time>
      </trkpt>
      <trkpt lat="49.18641" lon="6.99813">
        <ele>217.4</ele>
        <time>2016-10-19T08:43:45Z</time>
      </trkpt>
      <trkpt lat="49.18655" lon="6.99801">
        <ele>216.91</ele>
        <time>2016-10-19T08:44:02Z</time>
      </trkpt>
      <trkpt lat="49.18668" lon="6.99793">
        <ele>221.24</ele>
        <time>2016-10-19T08:44:18Z</time>
      </trkpt>
      <trkpt lat="49.18681" lon="6.99785">
        <ele>221.24</ele>
        <time>2016-10-19T08:44:33Z</time>
      </trkpt>
      <trkpt lat="49.18693" lon="6.99761">
        <ele>219.8</ele>
        <time>2016-10-19T08:44:51Z</time>
      </trkpt>
      <trkpt lat="49.18705" lon="6.99744">
        <ele>217.4</ele>
        <time>2016-10-19T08:45:09Z</time>
      </trkpt>
      <trkpt lat="49.18721" lon="6.99725">
        <ele>220.76</ele>
        <time>2016-10-19T08:45:26Z</time>
      </trkpt>
      <trkpt lat="49.18729" lon="6.99718">
        <ele>219.8</ele>
        <time>2016-10-19T08:45:35Z</time>
      </trkpt>
      <trkpt lat="49.18747" lon="6.99709">
        <ele>217.4</ele>
        <time>2016-10-19T08:45:53Z</time>
      </trkpt>
      <trkpt lat="49.18763" lon="6.99694">
        <ele>216.43</ele>
        <time>2016-10-19T08:46:11Z</time>
      </trkpt>
      <trkpt lat="49.18769" lon="6.99664">
        <ele>213.55</ele>
        <time>2016-10-19T08:46:29Z</time>
      </trkpt>
      <trkpt lat="49.1877" lon="6.99651">
        <ele>211.63</ele>
        <time>2016-10-19T08:46:37Z</time>
      </trkpt>
      <trkpt lat="49.18773" lon="6.99619">
        <ele>211.15</ele>
        <time>2016-10-19T08:46:56Z</time>
      </trkpt>
      <trkpt lat="49.18775" lon="6.99617">
        <ele>211.63</ele>
        <time>2016-10-19T08:46:58Z</time>
      </trkpt>
      <trkpt lat="49.18792" lon="6.99606">
        <ele>214.99</ele>
        <time>2016-10-19T08:47:15Z</time>
      </trkpt>
      <trkpt lat="49.18795" lon="6.99604">
        <ele>214.99</ele>
        <time>2016-10-19T08:47:19Z</time>
      </trkpt>
      <trkpt lat="49.18803" lon="6.99591">
        <ele>214.51</ele>
        <time>2016-10-19T08:47:31Z</time>
      </trkpt>
      <trkpt lat="49.18816" lon="6.99575">
        <ele>214.03</ele>
        <time>2016-10-19T08:47:46Z</time>
      </trkpt>
      <trkpt lat="49.1883" lon="6.99552">
        <ele>214.51</ele>
        <time>2016-10-19T08:48:05Z</time>
      </trkpt>
      <trkpt lat="49.18843" lon="6.99533">
        <ele>217.4</ele>
        <time>2016-10-19T08:48:21Z</time>
      </trkpt>
      <trkpt lat="49.18855" lon="6.99522">
        <ele>218.84</ele>
        <time>2016-10-19T08:48:35Z</time>
      </trkpt>
      <trkpt lat="49.18868" lon="6.9951">
        <ele>217.88</ele>
        <time>2016-10-19T08:48:51Z</time>
      </trkpt>
      <trkpt lat="49.18883" lon="6.99495">
        <ele>217.4</ele>
        <time>2016-10-19T08:49:07Z</time>
      </trkpt>
      <trkpt lat="49.18885" lon="6.99493">
        <ele>217.4</ele>
        <time>2016-10-19T08:49:09Z</time>
      </trkpt>
      <trkpt lat="49.18893" lon="6.99482">
        <ele>218.84</ele>
        <time>2016-10-19T08:49:19Z</time>
      </trkpt>
      <trkpt lat="49.18899" lon="6.99472">
        <ele>217.88</ele>
        <time>2016-10-19T08:49:28Z</time>
      </trkpt>
      <trkpt lat="49.18904" lon="6.99461">
        <ele>217.4</ele>
        <time>2016-10-19T08:49:36Z</time>
      </trkpt>
      <trkpt lat="49.18905" lon="6.99456">
        <ele>216.43</ele>
        <time>2016-10-19T08:49:39Z</time>
      </trkpt>
      <trkpt lat="49.18903" lon="6.9944">
        <ele>216.43</ele>
        <time>2016-10-19T08:49:48Z</time>
      </trkpt>
      <trkpt lat="49.18897" lon="6.99408">
        <ele>218.84</ele>
        <time>2016-10-19T08:50:06Z</time>
      </trkpt>
      <trkpt lat="49.18894" lon="6.99387">
        <ele>220.76</ele>
        <time>2016-10-19T08:50:21Z</time>
      </trkpt>
      <trkpt lat="49.18891" lon="6.99372">
        <ele>221.24</ele>
        <time>2016-10-19T08:50:36Z</time>
      </trkpt>
      <trkpt lat="49.18887" lon="6.99355">
        <ele>217.88</ele>
        <time>2016-10-19T08:50:50Z</time>
      </trkpt>
      <trkpt lat="49.18885" lon="6.99337">
        <ele>211.63</ele>
        <time>2016-10-19T08:51:04Z</time>
      </trkpt>
      <trkpt lat="49.18881" lon="6.9931">
        <ele>209.22</ele>
        <time>2016-10-19T08:51:21Z</time>
      </trkpt>
      <trkpt lat="49.18877" lon="6.99289">
        <ele>209.22</ele>
        <time>2016-10-19T08:51:30Z</time>
      </trkpt>
      <trkpt lat="49.18872" lon="6.99261">
        <ele>211.63</ele>
        <time>2016-10-19T08:51:45Z</time>
      </trkpt>
      <trkpt lat="49.1887" lon="6.99233">
        <ele>213.55</ele>
        <time>2016-10-19T08:52:00Z</time>
      </trkpt>
      <trkpt lat="49.18868" lon="6.99203">
        <ele>214.99</ele>
        <time>2016-10-19T08:52:18Z</time>
      </trkpt>
      <trkpt lat="49.18868" lon="6.99173">
        <ele>216.91</ele>
        <time>2016-10-19T08:52:36Z</time>
      </trkpt>
      <trkpt lat="49.18869" lon="6.99151">
        <ele>218.36</ele>
        <time>2016-10-19T08:52:51Z</time>
      </trkpt>
      <trkpt lat="49.18867" lon="6.99126">
        <ele>220.28</ele>
        <time>2016-10-19T08:53:08Z</time>
      </trkpt>
      <trkpt lat="49.18867" lon="6.99098">
        <ele>221.24</ele>
        <time>2016-10-19T08:53:24Z</time>
      </trkpt>
      <trkpt lat="49.18867" lon="6.99073">
        <ele>222.68</ele>
        <time>2016-10-19T08:53:41Z</time>
      </trkpt>
      <trkpt lat="49.18867" lon="6.99054">
        <ele>224.61</ele>
        <time>2016-10-19T08:53:55Z</time>
      </trkpt>
      <trkpt lat="49.18867" lon="6.99025">
        <ele>223.16</ele>
        <time>2016-10-19T08:54:12Z</time>
      </trkpt>
      <trkpt lat="49.18869" lon="6.99">
        <ele>222.68</ele>
        <time>2016-10-19T08:54:28Z</time>
      </trkpt>
      <trkpt lat="49.18871" lon="6.98973">
        <ele>224.12</ele>
        <time>2016-10-19T08:54:45Z</time>
      </trkpt>
      <trkpt lat="49.18872" lon="6.98946">
        <ele>226.05</ele>
        <time>2016-10-19T08:55:03Z</time>
      </trkpt>
      <trkpt lat="49.18872" lon="6.98918">
        <ele>227.01</ele>
        <time>2016-10-19T08:55:20Z</time>
      </trkpt>
      <trkpt lat="49.1887" lon="6.989">
        <ele>228.45</ele>
        <time>2016-10-19T08:55:35Z</time>
      </trkpt>
      <trkpt lat="49.18867" lon="6.98875">
        <ele>231.81</ele>
        <time>2016-10-19T08:55:53Z</time>
      </trkpt>
      <trkpt lat="49.18868" lon="6.98854">
        <ele>230.85</ele>
        <time>2016-10-19T08:56:07Z</time>
      </trkpt>
      <trkpt lat="49.18867" lon="6.98835">
        <ele>229.41</ele>
        <time>2016-10-19T08:56:22Z</time>
      </trkpt>
      <trkpt lat="49.18864" lon="6.98804">
        <ele>228.93</ele>
        <time>2016-10-19T08:56:41Z</time>
      </trkpt>
      <trkpt lat="49.18863" lon="6.988">
        <ele>228.45</ele>
        <time>2016-10-19T08:56:43Z</time>
      </trkpt>
      <trkpt lat="49.18857" lon="6.98772">
        <ele>228.45</ele>
        <time>2016-10-19T08:56:59Z</time>
      </trkpt>
      <trkpt lat="49.18852" lon="6.98748">
        <ele>229.41</ele>
        <time>2016-10-19T08:57:16Z</time>
      </trkpt>
      <trkpt lat="49.18847" lon="6.98728">
        <ele>227.01</ele>
        <time>2016-10-19T08:57:29Z</time>
      </trkpt>
      <trkpt lat="49.18842" lon="6.98703">
        <ele>228.45</ele>
        <time>2016-10-19T08:57:45Z</time>
      </trkpt>
      <trkpt lat="49.18838" lon="6.9869">
        <ele>231.33</ele>
        <time>2016-10-19T08:57:59Z</time>
      </trkpt>
      <trkpt lat="49.1883" lon="6.9866">
        <ele>233.74</ele>
        <time>2016-10-19T08:58:16Z</time>
      </trkpt>
      <trkpt lat="49.18824" lon="6.98634">
        <ele>233.74</ele>
        <time>2016-10-19T08:58:33Z</time>
      </trkpt>
      <trkpt lat="49.18816" lon="6.98606">
        <ele>235.66</ele>
        <time>2016-10-19T08:58:50Z</time>
      </trkpt>
      <trkpt lat="49.1881" lon="6.98581">
        <ele>235.18</ele>
        <time>2016-10-19T08:59:06Z</time>
      </trkpt>
      <trkpt lat="49.18804" lon="6.98555">
        <ele>236.14</ele>
        <time>2016-10-19T08:59:25Z</time>
      </trkpt>
      <trkpt lat="49.18797" lon="6.9853">
        <ele>237.58</ele>
        <time>2016-10-19T08:59:42Z</time>
      </trkpt>
      <trkpt lat="49.18789" lon="6.98501">
        <ele>239.99</ele>
        <time>2016-10-19T08:59:59Z</time>
      </trkpt>
      <trkpt lat="49.18784" lon="6.98474">
        <ele>240.47</ele>
        <time>2016-10-19T09:00:19Z</time>
      </trkpt>
      <trkpt lat="49.18777" lon="6.98444">
        <ele>240.47</ele>
        <time>2016-10-19T09:00:38Z</time>
      </trkpt>
      <trkpt lat="49.18772" lon="6.98422">
        <ele>240.47</ele>
        <time>2016-10-19T09:00:52Z</time>
      </trkpt>
      <trkpt lat="49.18764" lon="6.98395">
        <ele>240.47</ele>
        <time>2016-10-19T09:01:11Z</time>
      </trkpt>
      <trkpt lat="49.18759" lon="6.9837">
        <ele>240.47</ele>
        <time>2016-10-19T09:01:28Z</time>
      </trkpt>
      <trkpt lat="49.18754" lon="6.98343">
        <ele>241.43</ele>
        <time>2016-10-19T09:01:46Z</time>
      </trkpt>
      <trkpt lat="49.1875" lon="6.98319">
        <ele>242.87</ele>
        <time>2016-10-19T09:02:01Z</time>
      </trkpt>
      <trkpt lat="49.18739" lon="6.98299">
        <ele>241.91</ele>
        <time>2016-10-19T09:02:19Z</time>
      </trkpt>
      <trkpt lat="49.18738" lon="6.98298">
        <ele>241.91</ele>
        <time>2016-10-19T09:02:20Z</time>
      </trkpt>
      <trkpt lat="49.18732" lon="6.98285">
        <ele>239.99</ele>
        <time>2016-10-19T09:02:31Z</time>
      </trkpt>
      <trkpt lat="49.18723" lon="6.98264">
        <ele>237.1</ele>
        <time>2016-10-19T09:02:48Z</time>
      </trkpt>
      <trkpt lat="49.18721" lon="6.98246">
        <ele>233.26</ele>
        <time>2016-10-19T09:03:02Z</time>
      </trkpt>
      <trkpt lat="49.18719" lon="6.98223">
        <ele>231.33</ele>
        <time>2016-10-19T09:03:18Z</time>
      </trkpt>
      <trkpt lat="49.18719" lon="6.98196">
        <ele>234.22</ele>
        <time>2016-10-19T09:03:34Z</time>
      </trkpt>
      <trkpt lat="49.1872" lon="6.98173">
        <ele>234.7</ele>
        <time>2016-10-19T09:03:50Z</time>
      </trkpt>
      <trkpt lat="49.18723" lon="6.98149">
        <ele>235.66</ele>
        <time>2016-10-19T09:04:08Z</time>
      </trkpt>
      <trkpt lat="49.18726" lon="6.98122">
        <ele>231.81</ele>
        <time>2016-10-19T09:04:26Z</time>
      </trkpt>
      <trkpt lat="49.18731" lon="6.981">
        <ele>230.37</ele>
        <time>2016-10-19T09:04:43Z</time>
      </trkpt>
      <trkpt lat="49.18733" lon="6.98083">
        <ele>231.33</ele>
        <time>2016-10-19T09:04:57Z</time>
      </trkpt>
      <trkpt lat="49.18737" lon="6.98066">
        <ele>231.33</ele>
        <time>2016-10-19T09:05:12Z</time>
      </trkpt>
      <trkpt lat="49.18742" lon="6.98047">
        <ele>238.06</ele>
        <time>2016-10-19T09:05:26Z</time>
      </trkpt>
      <trkpt lat="49.18751" lon="6.98027">
        <ele>242.87</ele>
        <time>2016-10-19T09:05:44Z</time>
      </trkpt>
      <trkpt lat="49.18752" lon="6.98026">
        <ele>242.87</ele>
        <time>2016-10-19T09:05:45Z</time>
      </trkpt>
      <trkpt lat="49.18759" lon="6.98008">
        <ele>243.83</ele>
        <time>2016-10-19T09:06:01Z</time>
      </trkpt>
      <trkpt lat="49.18765" lon="6.97995">
        <ele>245.75</ele>
        <time>2016-10-19T09:06:15Z</time>
      </trkpt>
      <trkpt lat="49.18772" lon="6.97976">
        <ele>248.16</ele>
        <time>2016-10-19T09:06:30Z</time>
      </trkpt>
      <trkpt lat="49.18784" lon="6.97955">
        <ele>249.6</ele>
        <time>2016-10-19T09:06:48Z</time>
      </trkpt>
      <trkpt lat="49.18797" lon="6.97935">
        <ele>251.04</ele>
        <time>2016-10-19T09:07:06Z</time>
      </trkpt>
      <trkpt lat="49.18808" lon="6.97914">
        <ele>252.48</ele>
        <time>2016-10-19T09:07:23Z</time>
      </trkpt>
      <trkpt lat="49.1882" lon="6.97897">
        <ele>253.93</ele>
        <time>2016-10-19T09:07:40Z</time>
      </trkpt>
      <trkpt lat="49.18832" lon="6.97883">
        <ele>255.37</ele>
        <time>2016-10-19T09:07:55Z</time>
      </trkpt>
      <trkpt lat="49.18845" lon="6.97869">
        <ele>257.29</ele>
        <time>2016-10-19T09:08:12Z</time>
      </trkpt>
      <trkpt lat="49.18855" lon="6.97859">
        <ele>257.77</ele>
        <time>2016-10-19T09:08:27Z</time>
      </trkpt>
      <trkpt lat="49.1887" lon="6.9785">
        <ele>260.65</ele>
        <time>2016-10-19T09:08:43Z</time>
      </trkpt>
      <trkpt lat="49.18885" lon="6.9784">
        <ele>262.58</ele>
        <time>2016-10-19T09:08:59Z</time>
      </trkpt>
      <trkpt lat="49.18895" lon="6.97835">
        <ele>263.54</ele>
        <time>2016-10-19T09:09:13Z</time>
      </trkpt>
      <trkpt lat="49.18904" lon="6.97829">
        <ele>263.54</ele>
        <time>2016-10-19T09:09:25Z</time>
      </trkpt>
      <trkpt lat="49.18916" lon="6.97823">
        <ele>264.5</ele>
        <time>2016-10-19T09:09:40Z</time>
      </trkpt>
      <trkpt lat="49.1893" lon="6.97813">
        <ele>264.02</ele>
        <time>2016-10-19T09:09:56Z</time>
      </trkpt>
      <trkpt lat="49.18945" lon="6.97799">
        <ele>264.98</ele>
        <time>2016-10-19T09:10:12Z</time>
      </trkpt>
      <trkpt lat="49.1896" lon="6.97786">
        <ele>265.46</ele>
        <time>2016-10-19T09:10:28Z</time>
      </trkpt>
      <trkpt lat="49.18974" lon="6.97772">
        <ele>265.46</ele>
        <time>2016-10-19T09:10:45Z</time>
      </trkpt>
      <trkpt lat="49.18982" lon="6.97755">
        <ele>264.98</ele>
        <time>2016-10-19T09:11:00Z</time>
      </trkpt>
      <trkpt lat="49.18992" lon="6.9774">
        <ele>265.46</ele>
        <time>2016-10-19T09:11:16Z</time>
      </trkpt>
      <trkpt lat="49.19" lon="6.97717">
        <ele>263.54</ele>
        <time>2016-10-19T09:11:34Z</time>
      </trkpt>
      <trkpt lat="49.19007" lon="6.97698">
        <ele>263.06</ele>
        <time>2016-10-19T09:11:49Z</time>
      </trkpt>
      <trkpt lat="49.19014" lon="6.97678">
        <ele>264.02</ele>
        <time>2016-10-19T09:12:05Z</time>
      </trkpt>
      <trkpt lat="49.19021" lon="6.97659">
        <ele>263.54</ele>
        <time>2016-10-19T09:12:20Z</time>
      </trkpt>
      <trkpt lat="49.1903" lon="6.9764">
        <ele>263.54</ele>
        <time>2016-10-19T09:12:37Z</time>
      </trkpt>
      <trkpt lat="49.19034" lon="6.97623">
        <ele>264.98</ele>
        <time>2016-10-19T09:12:49Z</time>
      </trkpt>
      <trkpt lat="49.1904" lon="6.97601">
        <ele>266.9</ele>
        <time>2016-10-19T09:13:05Z</time>
      </trkpt>
      <trkpt lat="49.19044" lon="6.97574">
        <ele>268.83</ele>
        <time>2016-10-19T09:13:23Z</time>
      </trkpt>
      <trkpt lat="49.1905" lon="6.97548">
        <ele>271.23</ele>
        <time>2016-10-19T09:13:41Z</time>
      </trkpt>
      <trkpt lat="49.19059" lon="6.97521">
        <ele>273.15</ele>
        <time>2016-10-19T09:14:02Z</time>
      </trkpt>
      <trkpt lat="49.19067" lon="6.97509">
        <ele>275.07</ele>
        <time>2016-10-19T09:14:19Z</time>
      </trkpt>
      <trkpt lat="49.19073" lon="6.97501">
        <ele>275.56</ele>
        <time>2016-10-19T09:14:36Z</time>
      </trkpt>
      <trkpt lat="49.19077" lon="6.97493">
        <ele>276.04</ele>
        <time>2016-10-19T09:14:54Z</time>
      </trkpt>
      <trkpt lat="49.19081" lon="6.9747">
        <ele>277.96</ele>
        <time>2016-10-19T09:15:13Z</time>
      </trkpt>
      <trkpt lat="49.19086" lon="6.97449">
        <ele>280.36</ele>
        <time>2016-10-19T09:15:30Z</time>
      </trkpt>
      <trkpt lat="49.1909" lon="6.97427">
        <ele>279.4</ele>
        <time>2016-10-19T09:15:47Z</time>
      </trkpt>
      <trkpt lat="49.19093" lon="6.97402">
        <ele>281.32</ele>
        <time>2016-10-19T09:16:04Z</time>
      </trkpt>
      <trkpt lat="49.19098" lon="6.97377">
        <ele>283.25</ele>
        <time>2016-10-19T09:16:21Z</time>
      </trkpt>
      <trkpt lat="49.19103" lon="6.97354">
        <ele>283.25</ele>
        <time>2016-10-19T09:16:37Z</time>
      </trkpt>
      <trkpt lat="49.19109" lon="6.9733">
        <ele>284.69</ele>
        <time>2016-10-19T09:16:54Z</time>
      </trkpt>
      <trkpt lat="49.19115" lon="6.97306">
        <ele>285.65</ele>
        <time>2016-10-19T09:17:11Z</time>
      </trkpt>
      <trkpt lat="49.19122" lon="6.97282">
        <ele>287.57</ele>
        <time>2016-10-19T09:17:29Z</time>
      </trkpt>
      <trkpt lat="49.19129" lon="6.97253">
        <ele>287.57</ele>
        <time>2016-10-19T09:17:49Z</time>
      </trkpt>
      <trkpt lat="49.19132" lon="6.9723">
        <ele>286.61</ele>
        <time>2016-10-19T09:18:04Z</time>
      </trkpt>
      <trkpt lat="49.1914" lon="6.972">
        <ele>290.46</ele>
        <time>2016-10-19T09:18:23Z</time>
      </trkpt>
      <trkpt lat="49.19151" lon="6.97176">
        <ele>291.42</ele>
        <time>2016-10-19T09:18:42Z</time>
      </trkpt>
      <trkpt lat="49.19162" lon="6.97157">
        <ele>293.82</ele>
        <time>2016-10-19T09:18:59Z</time>
      </trkpt>
      <trkpt lat="49.19174" lon="6.97141">
        <ele>295.74</ele>
        <time>2016-10-19T09:19:17Z</time>
      </trkpt>
      <trkpt lat="49.19184" lon="6.97131">
        <ele>295.74</ele>
        <time>2016-10-19T09:19:30Z</time>
      </trkpt>
      <trkpt lat="49.19189" lon="6.97124">
        <ele>297.67</ele>
        <time>2016-10-19T09:19:37Z</time>
      </trkpt>
      <trkpt lat="49.19193" lon="6.97124">
        <ele>299.11</ele>
        <time>2016-10-19T09:19:42Z</time>
      </trkpt>
      <trkpt lat="49.19194" lon="6.97128">
        <ele>299.59</ele>
        <time>2016-10-19T09:19:44Z</time>
      </trkpt>
      <trkpt lat="49.19195" lon="6.97145">
        <ele>299.59</ele>
        <time>2016-10-19T09:19:55Z</time>
      </trkpt>
      <trkpt lat="49.19198" lon="6.97163">
        <ele>301.03</ele>
        <time>2016-10-19T09:20:10Z</time>
      </trkpt>
      <trkpt lat="49.19208" lon="6.97175">
        <ele>301.99</ele>
        <time>2016-10-19T09:20:25Z</time>
      </trkpt>
      <trkpt lat="49.19224" lon="6.97188">
        <ele>302.95</ele>
        <time>2016-10-19T09:20:43Z</time>
      </trkpt>
      <trkpt lat="49.19233" lon="6.97194">
        <ele>302.95</ele>
        <time>2016-10-19T09:20:56Z</time>
      </trkpt>
      <trkpt lat="49.19238" lon="6.97198">
        <ele>301.99</ele>
        <time>2016-10-19T09:21:02Z</time>
      </trkpt>
      <trkpt lat="49.1924" lon="6.97199">
        <ele>301.99</ele>
        <time>2016-10-19T09:21:04Z</time>
      </trkpt>
      <trkpt lat="49.19254" lon="6.97212">
        <ele>303.43</ele>
        <time>2016-10-19T09:21:20Z</time>
      </trkpt>
      <trkpt lat="49.19265" lon="6.97222">
        <ele>305.36</ele>
        <time>2016-10-19T09:21:34Z</time>
      </trkpt>
      <trkpt lat="49.1927" lon="6.97229">
        <ele>303.91</ele>
        <time>2016-10-19T09:21:48Z</time>
      </trkpt>
      <trkpt lat="49.19281" lon="6.97236">
        <ele>303.43</ele>
        <time>2016-10-19T09:22:00Z</time>
      </trkpt>
      <trkpt lat="49.19296" lon="6.97246">
        <ele>304.88</ele>
        <time>2016-10-19T09:22:15Z</time>
      </trkpt>
      <trkpt lat="49.19312" lon="6.97258">
        <ele>305.84</ele>
        <time>2016-10-19T09:22:32Z</time>
      </trkpt>
      <trkpt lat="49.19325" lon="6.97268">
        <ele>306.8</ele>
        <time>2016-10-19T09:22:46Z</time>
      </trkpt>
      <trkpt lat="49.19338" lon="6.97278">
        <ele>307.28</ele>
        <time>2016-10-19T09:23:00Z</time>
      </trkpt>
      <trkpt lat="49.19352" lon="6.9729">
        <ele>307.76</ele>
        <time>2016-10-19T09:23:17Z</time>
      </trkpt>
      <trkpt lat="49.19363" lon="6.973">
        <ele>307.76</ele>
        <time>2016-10-19T09:23:33Z</time>
      </trkpt>
      <trkpt lat="49.19377" lon="6.97312">
        <ele>307.76</ele>
        <time>2016-10-19T09:23:49Z</time>
      </trkpt>
      <trkpt lat="49.19392" lon="6.97322">
        <ele>309.68</ele>
        <time>2016-10-19T09:24:05Z</time>
      </trkpt>
      <trkpt lat="49.19408" lon="6.97334">
        <ele>311.12</ele>
        <time>2016-10-19T09:24:21Z</time>
      </trkpt>
      <trkpt lat="49.19423" lon="6.97346">
        <ele>312.09</ele>
        <time>2016-10-19T09:24:37Z</time>
      </trkpt>
      <trkpt lat="49.19427" lon="6.9735">
        <ele>311.6</ele>
        <time>2016-10-19T09:24:42Z</time>
      </trkpt>
      <trkpt lat="49.19442" lon="6.9736">
        <ele>311.6</ele>
        <time>2016-10-19T09:24:58Z</time>
      </trkpt>
      <trkpt lat="49.19457" lon="6.97374">
        <ele>311.6</ele>
        <time>2016-10-19T09:25:15Z</time>
      </trkpt>
      <trkpt lat="49.19462" lon="6.97377">
        <ele>311.6</ele>
        <time>2016-10-19T09:25:21Z</time>
      </trkpt>
      <trkpt lat="49.19476" lon="6.97375">
        <ele>311.6</ele>
        <time>2016-10-19T09:25:35Z</time>
      </trkpt>
      <trkpt lat="49.19485" lon="6.97351">
        <ele>312.09</ele>
        <time>2016-10-19T09:25:53Z</time>
      </trkpt>
      <trkpt lat="49.19492" lon="6.97332">
        <ele>312.09</ele>
        <time>2016-10-19T09:26:08Z</time>
      </trkpt>
      <trkpt lat="49.19503" lon="6.97305">
        <ele>313.53</ele>
        <time>2016-10-19T09:26:27Z</time>
      </trkpt>
      <trkpt lat="49.19513" lon="6.9728">
        <ele>314.01</ele>
        <time>2016-10-19T09:26:46Z</time>
      </trkpt>
      <trkpt lat="49.19521" lon="6.97257">
        <ele>313.53</ele>
        <time>2016-10-19T09:27:03Z</time>
      </trkpt>
      <trkpt lat="49.19521" lon="6.97242">
        <ele>314.01</ele>
        <time>2016-10-19T09:27:12Z</time>
      </trkpt>
      <trkpt lat="49.19516" lon="6.97212">
        <ele>314.49</ele>
        <time>2016-10-19T09:27:32Z</time>
      </trkpt>
      <trkpt lat="49.19516" lon="6.97205">
        <ele>314.49</ele>
        <time>2016-10-19T09:27:36Z</time>
      </trkpt>
      <trkpt lat="49.19522" lon="6.97173">
        <ele>315.93</ele>
        <time>2016-10-19T09:27:56Z</time>
      </trkpt>
      <trkpt lat="49.19529" lon="6.97141">
        <ele>318.81</ele>
        <time>2016-10-19T09:28:17Z</time>
      </trkpt>
      <trkpt lat="49.19537" lon="6.97118">
        <ele>318.81</ele>
        <time>2016-10-19T09:28:35Z</time>
      </trkpt>
      <trkpt lat="49.19543" lon="6.97099">
        <ele>318.81</ele>
        <time>2016-10-19T09:28:53Z</time>
      </trkpt>
      <trkpt lat="49.19544" lon="6.97085">
        <ele>319.78</ele>
        <time>2016-10-19T09:29:09Z</time>
      </trkpt>
      <trkpt lat="49.19544" lon="6.97082">
        <ele>319.78</ele>
        <time>2016-10-19T09:29:13Z</time>
      </trkpt>
      <trkpt lat="49.19543" lon="6.97057">
        <ele>320.26</ele>
        <time>2016-10-19T09:29:30Z</time>
      </trkpt>
      <trkpt lat="49.19544" lon="6.97029">
        <ele>319.3</ele>
        <time>2016-10-19T09:29:48Z</time>
      </trkpt>
      <trkpt lat="49.1955" lon="6.97004">
        <ele>320.26</ele>
        <time>2016-10-19T09:30:05Z</time>
      </trkpt>
      <trkpt lat="49.19554" lon="6.9698">
        <ele>321.22</ele>
        <time>2016-10-19T09:30:21Z</time>
      </trkpt>
      <trkpt lat="49.19558" lon="6.96958">
        <ele>321.22</ele>
        <time>2016-10-19T09:30:36Z</time>
      </trkpt>
      <trkpt lat="49.19563" lon="6.96935">
        <ele>322.18</ele>
        <time>2016-10-19T09:30:52Z</time>
      </trkpt>
      <trkpt lat="49.19571" lon="6.96917">
        <ele>323.62</ele>
        <time>2016-10-19T09:31:05Z</time>
      </trkpt>
      <trkpt lat="49.19581" lon="6.969">
        <ele>325.54</ele>
        <time>2016-10-19T09:31:21Z</time>
      </trkpt>
      <trkpt lat="49.19587" lon="6.96875">
        <ele>325.54</ele>
        <time>2016-10-19T09:31:38Z</time>
      </trkpt>
      <trkpt lat="49.19593" lon="6.96846">
        <ele>324.58</ele>
        <time>2016-10-19T09:31:56Z</time>
      </trkpt>
      <trkpt lat="49.19598" lon="6.96819">
        <ele>324.1</ele>
        <time>2016-10-19T09:32:12Z</time>
      </trkpt>
      <trkpt lat="49.19604" lon="6.96806">
        <ele>324.58</ele>
        <time>2016-10-19T09:32:26Z</time>
      </trkpt>
      <trkpt lat="49.19604" lon="6.96805">
        <ele>324.58</ele>
        <time>2016-10-19T09:32:27Z</time>
      </trkpt>
      <trkpt lat="49.19606" lon="6.96793">
        <ele>324.58</ele>
        <time>2016-10-19T09:32:41Z</time>
      </trkpt>
      <trkpt lat="49.19606" lon="6.96786">
        <ele>326.02</ele>
        <time>2016-10-19T09:32:55Z</time>
      </trkpt>
      <trkpt lat="49.19607" lon="6.96789">
        <ele>323.62</ele>
        <time>2016-10-19T09:33:18Z</time>
      </trkpt>
      <trkpt lat="49.19606" lon="6.96789">
        <ele>324.1</ele>
        <time>2016-10-19T09:33:30Z</time>
      </trkpt>
      <trkpt lat="49.19607" lon="6.96788">
        <ele>325.54</ele>
        <time>2016-10-19T09:33:50Z</time>
      </trkpt>
      <trkpt lat="49.19608" lon="6.96785">
        <ele>325.06</ele>
        <time>2016-10-19T09:34:08Z</time>
      </trkpt>
      <trkpt lat="49.19612" lon="6.96768">
        <ele>324.58</ele>
        <time>2016-10-19T09:34:22Z</time>
      </trkpt>
      <trkpt lat="49.19618" lon="6.96752">
        <ele>324.58</ele>
        <time>2016-10-19T09:34:37Z</time>
      </trkpt>
      <trkpt lat="49.19624" lon="6.96743">
        <ele>324.58</ele>
        <time>2016-10-19T09:34:48Z</time>
      </trkpt>
      <trkpt lat="49.19635" lon="6.96726">
        <ele>322.66</ele>
        <time>2016-10-19T09:35:05Z</time>
      </trkpt>
      <trkpt lat="49.19638" lon="6.9672">
        <ele>322.18</ele>
        <time>2016-10-19T09:35:10Z</time>
      </trkpt>
      <trkpt lat="49.19645" lon="6.9671">
        <ele>322.18</ele>
        <time>2016-10-19T09:35:25Z</time>
      </trkpt>
      <trkpt lat="49.19647" lon="6.96707">
        <ele>320.26</ele>
        <time>2016-10-19T09:35:38Z</time>
      </trkpt>
      <trkpt lat="49.19644" lon="6.96704">
        <ele>318.81</ele>
        <time>2016-10-19T09:35:58Z</time>
      </trkpt>
      <trkpt lat="49.19657" lon="6.967">
        <ele>319.3</ele>
        <time>2016-10-19T09:36:23Z</time>
      </trkpt>
      <trkpt lat="49.19658" lon="6.96695">
        <ele>319.3</ele>
        <time>2016-10-19T09:36:43Z</time>
      </trkpt>
      <trkpt lat="49.19648" lon="6.96691">
        <ele>318.81</ele>
        <time>2016-10-19T09:37:03Z</time>
      </trkpt>
      <trkpt lat="49.19653" lon="6.96694">
        <ele>318.81</ele>
        <time>2016-10-19T09:37:27Z</time>
      </trkpt>
      <trkpt lat="49.19653" lon="6.96703">
        <ele>318.81</ele>
        <time>2016-10-19T09:37:49Z</time>
      </trkpt>
      <trkpt lat="49.1965" lon="6.96721">
        <ele>319.3</ele>
        <time>2016-10-19T09:38:11Z</time>
      </trkpt>
      <trkpt lat="49.19649" lon="6.96728">
        <ele>319.3</ele>
        <time>2016-10-19T09:38:15Z</time>
      </trkpt>
      <trkpt lat="49.19641" lon="6.96776">
        <ele>318.81</ele>
        <time>2016-10-19T09:38:42Z</time>
      </trkpt>
      <trkpt lat="49.1964" lon="6.96847">
        <ele>318.81</ele>
        <time>2016-10-19T09:39:08Z</time>
      </trkpt>
      <trkpt lat="49.19653" lon="6.96742">
        <ele>319.3</ele>
        <time>2016-10-19T09:39:22Z</time>
      </trkpt>
      <trkpt lat="49.19656" lon="6.96725">
        <ele>320.26</ele>
        <time>2016-10-19T09:40:02Z</time>
      </trkpt>
      <trkpt lat="49.19655" lon="6.96723">
        <ele>321.7</ele>
        <time>2016-10-19T09:40:28Z</time>
      </trkpt>
      <trkpt lat="49.19654" lon="6.96738">
        <ele>321.7</ele>
        <time>2016-10-19T09:40:51Z</time>
      </trkpt>
      <trkpt lat="49.19659" lon="6.9674">
        <ele>322.18</ele>
        <time>2016-10-19T09:41:08Z</time>
      </trkpt>
      <trkpt lat="49.1965" lon="6.96703">
        <ele>321.22</ele>
        <time>2016-10-19T09:41:33Z</time>
      </trkpt>
      <trkpt lat="49.19646" lon="6.96711">
        <ele>328.91</ele>
        <time>2016-10-19T09:41:47Z</time>
      </trkpt>
      <trkpt lat="49.19645" lon="6.96711">
        <ele>328.43</ele>
        <time>2016-10-19T09:42:01Z</time>
      </trkpt>
      <trkpt lat="49.19641" lon="6.96715">
        <ele>328.91</ele>
        <time>2016-10-19T09:42:17Z</time>
      </trkpt>
      <trkpt lat="49.19638" lon="6.96722">
        <ele>328.43</ele>
        <time>2016-10-19T09:42:24Z</time>
      </trkpt>
      <trkpt lat="49.19624" lon="6.96741">
        <ele>326.02</ele>
        <time>2016-10-19T09:42:42Z</time>
      </trkpt>
      <trkpt lat="49.19613" lon="6.96753">
        <ele>326.99</ele>
        <time>2016-10-19T09:42:56Z</time>
      </trkpt>
      <trkpt lat="49.19603" lon="6.96759">
        <ele>326.02</ele>
        <time>2016-10-19T09:43:09Z</time>
      </trkpt>
      <trkpt lat="49.19589" lon="6.9676">
        <ele>326.5</ele>
        <time>2016-10-19T09:43:23Z</time>
      </trkpt>
      <trkpt lat="49.19571" lon="6.96761">
        <ele>326.5</ele>
        <time>2016-10-19T09:43:40Z</time>
      </trkpt>
      <trkpt lat="49.19553" lon="6.96762">
        <ele>328.43</ele>
        <time>2016-10-19T09:43:58Z</time>
      </trkpt>
      <trkpt lat="49.19536" lon="6.96765">
        <ele>327.95</ele>
        <time>2016-10-19T09:44:15Z</time>
      </trkpt>
      <trkpt lat="49.1952" lon="6.96764">
        <ele>326.5</ele>
        <time>2016-10-19T09:44:31Z</time>
      </trkpt>
      <trkpt lat="49.19502" lon="6.96765">
        <ele>326.02</ele>
        <time>2016-10-19T09:44:48Z</time>
      </trkpt>
      <trkpt lat="49.19488" lon="6.9676">
        <ele>325.06</ele>
        <time>2016-10-19T09:45:02Z</time>
      </trkpt>
      <trkpt lat="49.1947" lon="6.96755">
        <ele>321.7</ele>
        <time>2016-10-19T09:45:19Z</time>
      </trkpt>
      <trkpt lat="49.19451" lon="6.96746">
        <ele>319.78</ele>
        <time>2016-10-19T09:45:37Z</time>
      </trkpt>
      <trkpt lat="49.19438" lon="6.96739">
        <ele>320.26</ele>
        <time>2016-10-19T09:45:51Z</time>
      </trkpt>
      <trkpt lat="49.1942" lon="6.9673">
        <ele>320.74</ele>
        <time>2016-10-19T09:46:07Z</time>
      </trkpt>
      <trkpt lat="49.19404" lon="6.96718">
        <ele>320.74</ele>
        <time>2016-10-19T09:46:22Z</time>
      </trkpt>
      <trkpt lat="49.19389" lon="6.96712">
        <ele>320.26</ele>
        <time>2016-10-19T09:46:38Z</time>
      </trkpt>
      <trkpt lat="49.19382" lon="6.96709">
        <ele>319.3</ele>
        <time>2016-10-19T09:46:46Z</time>
      </trkpt>
      <trkpt lat="49.19373" lon="6.96704">
        <ele>318.81</ele>
        <time>2016-10-19T09:46:55Z</time>
      </trkpt>
      <trkpt lat="49.19362" lon="6.96705">
        <ele>316.41</ele>
        <time>2016-10-19T09:47:07Z</time>
      </trkpt>
      <trkpt lat="49.19359" lon="6.96704">
        <ele>316.41</ele>
        <time>2016-10-19T09:47:10Z</time>
      </trkpt>
      <trkpt lat="49.19353" lon="6.96702">
        <ele>315.93</ele>
        <time>2016-10-19T09:47:16Z</time>
      </trkpt>
      <trkpt lat="49.19337" lon="6.96696">
        <ele>312.09</ele>
        <time>2016-10-19T09:47:33Z</time>
      </trkpt>
      <trkpt lat="49.19324" lon="6.9669">
        <ele>308.24</ele>
        <time>2016-10-19T09:47:49Z</time>
      </trkpt>
      <trkpt lat="49.19308" lon="6.96678">
        <ele>310.64</ele>
        <time>2016-10-19T09:48:03Z</time>
      </trkpt>
      <trkpt lat="49.19288" lon="6.9667">
        <ele>313.53</ele>
        <time>2016-10-19T09:48:22Z</time>
      </trkpt>
      <trkpt lat="49.19276" lon="6.9666">
        <ele>313.53</ele>
        <time>2016-10-19T09:48:36Z</time>
      </trkpt>
      <trkpt lat="49.19258" lon="6.96649">
        <ele>313.53</ele>
        <time>2016-10-19T09:48:52Z</time>
      </trkpt>
      <trkpt lat="49.19239" lon="6.96634">
        <ele>313.53</ele>
        <time>2016-10-19T09:49:09Z</time>
      </trkpt>
      <trkpt lat="49.19221" lon="6.96627">
        <ele>314.01</ele>
        <time>2016-10-19T09:49:25Z</time>
      </trkpt>
      <trkpt lat="49.19202" lon="6.96623">
        <ele>313.05</ele>
        <time>2016-10-19T09:49:42Z</time>
      </trkpt>
      <trkpt lat="49.19184" lon="6.96622">
        <ele>313.53</ele>
        <time>2016-10-19T09:49:58Z</time>
      </trkpt>
      <trkpt lat="49.19171" lon="6.96615">
        <ele>314.01</ele>
        <time>2016-10-19T09:50:13Z</time>
      </trkpt>
      <trkpt lat="49.1917" lon="6.96614">
        <ele>313.53</ele>
        <time>2016-10-19T09:50:14Z</time>
      </trkpt>
      <trkpt lat="49.19158" lon="6.96606">
        <ele>311.12</ele>
        <time>2016-10-19T09:50:28Z</time>
      </trkpt>
      <trkpt lat="49.19157" lon="6.96603">
        <ele>311.6</ele>
        <time>2016-10-19T09:50:30Z</time>
      </trkpt>
      <trkpt lat="49.19154" lon="6.96583">
        <ele>313.05</ele>
        <time>2016-10-19T09:50:46Z</time>
      </trkpt>
      <trkpt lat="49.19151" lon="6.96578">
        <ele>313.53</ele>
        <time>2016-10-19T09:50:53Z</time>
      </trkpt>
      <trkpt lat="49.19137" lon="6.96566">
        <ele>312.09</ele>
        <time>2016-10-19T09:51:06Z</time>
      </trkpt>
      <trkpt lat="49.19116" lon="6.96552">
        <ele>313.53</ele>
        <time>2016-10-19T09:51:24Z</time>
      </trkpt>
      <trkpt lat="49.19103" lon="6.96544">
        <ele>315.45</ele>
        <time>2016-10-19T09:51:37Z</time>
      </trkpt>
    </trkseg>
  </trk>
</gpx>